FIN132 WSSS-EFHK
Flight info
| Callsign | FIN132 |
|---|---|
| Flight time | 13h 0m |
| Altitude | 36000 |
| Route | AROSO5B AROSO Y513 KALIL Y501 RINBA Y502 DUBAX R325 IKULA L515 OBMOG M770 KAKID M875 DI N644 LEMOD A909 RODAR N644 ROLIN DCT OLDUD DCT ODERO DCT LUGEB DCT LAPKA DCT KENIN DCT TOXAR DCT BOKSU DCT INBOV DCT GUNTA DCT SOKVA DCT ANAMA DCT KEMET Q11 INTOR |
| Aircraft | A359/H-SDE2E3GHIJ3J4J5LM1ORWXY/LB1D1 |
Departure
| Time | 2026-04-21 20:05 |
|---|---|
| Airport | Singapore Changi Airport (WSSS) |
Arrival
| Time | 2026-04-22 09:05 |
|---|---|
| Airport | Helsinki Vantaa Airport (EFHK) |
| Time | Latitude | Longitude | Altitude | Speed | Heading |
|---|---|---|---|---|---|
| 2026-04-21 18:29 | 1.35929 | 103.99201 | 30 ft | 0 kts | 293° |
| 2026-04-21 19:49 | 1.35928 | 103.99203 | 30 ft | 3 kts | 293° |
| 2026-04-21 19:49 | 1.35918 | 103.99228 | 30 ft | 4 kts | 291° |
| 2026-04-21 19:50 | 1.35912 | 103.99244 | 30 ft | 3 kts | 292° |
| 2026-04-21 19:50 | 1.35897 | 103.99268 | 30 ft | 4 kts | 350° |
| 2026-04-21 19:50 | 1.35873 | 103.99263 | 29 ft | 4 kts | 24° |
| 2026-04-21 19:50 | 1.35866 | 103.99259 | 30 ft | 0 kts | 22° |
| 2026-04-21 19:56 | 1.35883 | 103.99266 | 30 ft | 9 kts | 24° |
| 2026-04-21 19:56 | 1.35944 | 103.99294 | 30 ft | 16 kts | 24° |
| 2026-04-21 19:57 | 1.36050 | 103.99336 | 30 ft | 17 kts | 21° |
| 2026-04-21 19:57 | 1.36160 | 103.99383 | 30 ft | 17 kts | 23° |
| 2026-04-21 19:57 | 1.36267 | 103.99439 | 30 ft | 17 kts | 44° |
| 2026-04-21 19:57 | 1.36341 | 103.99532 | 30 ft | 17 kts | 53° |
| 2026-04-21 19:58 | 1.36436 | 103.99603 | 30 ft | 17 kts | 24° |
| 2026-04-21 19:58 | 1.36483 | 103.99597 | 30 ft | 9 kts | 315° |
| 2026-04-21 19:58 | 1.36528 | 103.99515 | 30 ft | 15 kts | 294° |
| 2026-04-21 19:58 | 1.36569 | 103.99419 | 30 ft | 16 kts | 293° |
| 2026-04-21 19:59 | 1.36614 | 103.99313 | 30 ft | 17 kts | 292° |
| 2026-04-21 19:59 | 1.36660 | 103.99202 | 30 ft | 18 kts | 293° |
| 2026-04-21 19:59 | 1.36710 | 103.99084 | 30 ft | 21 kts | 292° |
| 2026-04-21 19:59 | 1.36771 | 103.98939 | 30 ft | 23 kts | 292° |
| 2026-04-21 20:00 | 1.36875 | 103.98881 | 30 ft | 18 kts | 16° |
| 2026-04-21 20:00 | 1.36991 | 103.98928 | 30 ft | 18 kts | 22° |
| 2026-04-21 20:00 | 1.37096 | 103.98909 | 30 ft | 16 kts | 325° |
| 2026-04-21 20:00 | 1.37214 | 103.98923 | 30 ft | 22 kts | 23° |
| 2026-04-21 20:01 | 1.37366 | 103.98987 | 30 ft | 27 kts | 23° |
| 2026-04-21 20:01 | 1.37408 | 103.99004 | 30 ft | 7 kts | 17° |
| 2026-04-21 20:01 | 1.37461 | 103.98995 | 30 ft | 0 kts | 324° |
| 2026-04-21 20:03 | 1.37473 | 103.98982 | 30 ft | 12 kts | 306° |
| 2026-04-21 20:03 | 1.37452 | 103.98896 | 30 ft | 14 kts | 236° |
| 2026-04-21 20:03 | 1.37390 | 103.98819 | 30 ft | 15 kts | 230° |
| 2026-04-21 20:03 | 1.37324 | 103.98775 | 30 ft | 0 kts | 203° |
| 2026-04-21 20:04 | 1.37245 | 103.98741 | 30 ft | 38 kts | 203° |
| 2026-04-21 20:04 | 1.36803 | 103.98554 | 30 ft | 105 kts | 202° |
| 2026-04-21 20:05 | 1.35904 | 103.98171 | 32 ft | 174 kts | 203° |
| 2026-04-21 20:05 | 1.34756 | 103.97686 | 679 ft | 173 kts | 203° |
| 2026-04-21 20:05 | 1.33697 | 103.97237 | 1265 ft | 163 kts | 203° |
| 2026-04-21 20:05 | 1.32618 | 103.96780 | 1427 ft | 174 kts | 203° |
| 2026-04-21 20:06 | 1.31456 | 103.96289 | 1574 ft | 188 kts | 203° |
| 2026-04-21 20:06 | 1.30203 | 103.95763 | 1735 ft | 202 kts | 202° |
| 2026-04-21 20:06 | 1.28851 | 103.95192 | 1871 ft | 220 kts | 203° |
| 2026-04-21 20:06 | 1.27386 | 103.94570 | 2075 ft | 235 kts | 202° |
| 2026-04-21 20:07 | 1.25825 | 103.94048 | 2484 ft | 240 kts | 190° |
| 2026-04-21 20:07 | 1.24157 | 103.94171 | 2856 ft | 246 kts | 159° |
| 2026-04-21 20:07 | 1.23177 | 103.94752 | 3105 ft | 250 kts | 137° |
| 2026-04-21 20:07 | 1.21959 | 103.96717 | 3722 ft | 252 kts | 112° |
| 2026-04-21 20:08 | 1.21287 | 103.98341 | 4173 ft | 254 kts | 112° |
| 2026-04-21 20:08 | 1.20614 | 103.99986 | 4595 ft | 258 kts | 112° |
| 2026-04-21 20:08 | 1.19937 | 104.01630 | 5026 ft | 261 kts | 111° |
| 2026-04-21 20:08 | 1.19577 | 104.03403 | 5440 ft | 263 kts | 87° |
| 2026-04-21 20:09 | 1.20096 | 104.05137 | 5824 ft | 264 kts | 56° |
| 2026-04-21 20:09 | 1.21456 | 104.06383 | 5983 ft | 272 kts | 25° |
| 2026-04-21 20:09 | 1.23213 | 104.07157 | 6272 ft | 280 kts | 18° |
| 2026-04-21 20:09 | 1.25116 | 104.07526 | 6684 ft | 280 kts | 358° |
| 2026-04-21 20:10 | 1.27021 | 104.07182 | 7131 ft | 279 kts | 341° |
| 2026-04-21 20:10 | 1.28868 | 104.06563 | 7584 ft | 281 kts | 339° |
| 2026-04-21 20:10 | 1.30724 | 104.05913 | 8034 ft | 284 kts | 339° |
| 2026-04-21 20:10 | 1.32592 | 104.05266 | 8467 ft | 286 kts | 339° |
| 2026-04-21 20:11 | 1.34484 | 104.04617 | 8912 ft | 289 kts | 340° |
| 2026-04-21 20:11 | 1.36393 | 104.03969 | 9351 ft | 291 kts | 340° |
| 2026-04-21 20:11 | 1.38318 | 104.03316 | 9774 ft | 293 kts | 340° |
| 2026-04-21 20:11 | 1.40263 | 104.02660 | 10150 ft | 298 kts | 340° |
| 2026-04-21 20:12 | 1.42268 | 104.01988 | 10342 ft | 310 kts | 340° |
| 2026-04-21 20:12 | 1.44360 | 104.01308 | 10511 ft | 321 kts | 341° |
| 2026-04-21 20:12 | 1.45784 | 104.00848 | 10620 ft | 329 kts | 341° |
| 2026-04-21 20:12 | 1.48762 | 103.99886 | 10853 ft | 344 kts | 341° |
| 2026-04-21 20:13 | 1.51074 | 103.99139 | 11009 ft | 354 kts | 341° |
| 2026-04-21 20:13 | 1.53420 | 103.98381 | 11167 ft | 364 kts | 341° |
| 2026-04-21 20:13 | 1.55859 | 103.97592 | 11315 ft | 373 kts | 341° |
| 2026-04-21 20:13 | 1.58355 | 103.96785 | 11460 ft | 382 kts | 341° |
| 2026-04-21 20:14 | 1.60911 | 103.95957 | 11605 ft | 390 kts | 341° |
| 2026-04-21 20:14 | 1.63509 | 103.95116 | 11863 ft | 394 kts | 341° |
| 2026-04-21 20:14 | 1.66125 | 103.94270 | 12171 ft | 396 kts | 341° |
| 2026-04-21 20:14 | 1.68756 | 103.93418 | 12456 ft | 399 kts | 341° |
| 2026-04-21 20:15 | 1.71402 | 103.92563 | 12756 ft | 401 kts | 341° |
| 2026-04-21 20:15 | 1.74012 | 103.91573 | 13074 ft | 402 kts | 333° |
| 2026-04-21 20:15 | 1.76328 | 103.90019 | 13387 ft | 403 kts | 317° |
| 2026-04-21 20:15 | 1.78195 | 103.87934 | 13694 ft | 403 kts | 308° |
| 2026-04-21 20:16 | 1.79917 | 103.85703 | 13989 ft | 405 kts | 307° |
| 2026-04-21 20:16 | 1.81630 | 103.83458 | 14289 ft | 407 kts | 307° |
| 2026-04-21 20:16 | 1.83357 | 103.81206 | 14586 ft | 409 kts | 307° |
| 2026-04-21 20:16 | 1.85097 | 103.78942 | 14863 ft | 411 kts | 307° |
| 2026-04-21 20:17 | 1.86845 | 103.76673 | 15183 ft | 413 kts | 307° |
| 2026-04-21 20:17 | 1.88604 | 103.74394 | 15482 ft | 415 kts | 307° |
| 2026-04-21 20:17 | 1.90349 | 103.72134 | 15778 ft | 416 kts | 307° |
| 2026-04-21 20:17 | 1.92121 | 103.69837 | 16054 ft | 418 kts | 307° |
| 2026-04-21 20:18 | 1.93317 | 103.68279 | 16234 ft | 419 kts | 307° |
| 2026-04-21 20:18 | 1.95679 | 103.65202 | 16589 ft | 422 kts | 307° |
| 2026-04-21 20:18 | 1.97473 | 103.62869 | 16867 ft | 424 kts | 307° |
| 2026-04-21 20:18 | 1.99269 | 103.60528 | 17147 ft | 425 kts | 307° |
| 2026-04-21 20:19 | 2.01073 | 103.58176 | 17401 ft | 428 kts | 307° |
| 2026-04-21 20:19 | 2.02892 | 103.55818 | 17686 ft | 429 kts | 307° |
| 2026-04-21 20:19 | 2.04713 | 103.53456 | 17935 ft | 430 kts | 307° |
| 2026-04-21 20:19 | 2.06547 | 103.51072 | 18170 ft | 432 kts | 308° |
| 2026-04-21 20:20 | 2.07768 | 103.49486 | 18330 ft | 434 kts | 307° |
| 2026-04-21 20:20 | 2.10233 | 103.46282 | 18663 ft | 436 kts | 307° |
| 2026-04-21 20:20 | 2.11455 | 103.44693 | 18817 ft | 436 kts | 307° |
| 2026-04-21 20:20 | 2.13280 | 103.42254 | 19004 ft | 438 kts | 304° |
| 2026-04-21 20:21 | 2.14770 | 103.39592 | 19231 ft | 439 kts | 293° |
| 2026-04-21 20:21 | 2.15859 | 103.36732 | 19461 ft | 441 kts | 289° |
| 2026-04-21 20:21 | 2.16784 | 103.33801 | 19667 ft | 443 kts | 286° |
| 2026-04-21 20:21 | 2.17629 | 103.30835 | 19885 ft | 445 kts | 285° |
| 2026-04-21 20:22 | 2.18452 | 103.27850 | 20094 ft | 446 kts | 285° |
| 2026-04-21 20:22 | 2.20111 | 103.21897 | 20522 ft | 449 kts | 285° |
| 2026-04-21 20:22 | 2.20971 | 103.18888 | 20730 ft | 450 kts | 286° |
| 2026-04-21 20:23 | 2.21844 | 103.15878 | 20935 ft | 452 kts | 286° |
| 2026-04-21 20:23 | 2.22726 | 103.12856 | 21126 ft | 453 kts | 286° |
| 2026-04-21 20:23 | 2.23614 | 103.09832 | 21321 ft | 454 kts | 286° |
| 2026-04-21 20:23 | 2.24505 | 103.06792 | 21491 ft | 456 kts | 286° |
| 2026-04-21 20:24 | 2.25399 | 103.03744 | 21686 ft | 457 kts | 286° |
| 2026-04-21 20:24 | 2.26293 | 103.00690 | 21880 ft | 458 kts | 286° |
| 2026-04-21 20:24 | 2.27190 | 102.97627 | 22057 ft | 460 kts | 286° |
| 2026-04-21 20:24 | 2.28091 | 102.94552 | 22240 ft | 461 kts | 286° |
| 2026-04-21 20:25 | 2.28994 | 102.91467 | 22422 ft | 462 kts | 286° |
| 2026-04-21 20:25 | 2.29897 | 102.88380 | 22599 ft | 464 kts | 286° |
| 2026-04-21 20:25 | 2.30806 | 102.85274 | 22776 ft | 465 kts | 286° |
| 2026-04-21 20:25 | 2.31717 | 102.82171 | 22944 ft | 466 kts | 286° |
| 2026-04-21 20:26 | 2.32638 | 102.79040 | 23120 ft | 468 kts | 286° |
| 2026-04-21 20:26 | 2.33549 | 102.75949 | 23245 ft | 470 kts | 286° |
| 2026-04-21 20:26 | 2.34468 | 102.72810 | 23403 ft | 471 kts | 286° |
| 2026-04-21 20:26 | 2.35384 | 102.69668 | 23559 ft | 472 kts | 286° |
| 2026-04-21 20:27 | 2.36303 | 102.66514 | 23725 ft | 473 kts | 286° |
| 2026-04-21 20:27 | 2.37225 | 102.63355 | 23878 ft | 474 kts | 286° |
| 2026-04-21 20:27 | 2.38149 | 102.60188 | 24014 ft | 475 kts | 286° |
| 2026-04-21 20:27 | 2.39076 | 102.57011 | 24160 ft | 476 kts | 286° |
| 2026-04-21 20:28 | 2.40006 | 102.53829 | 24303 ft | 477 kts | 286° |
| 2026-04-21 20:28 | 2.40937 | 102.50641 | 24459 ft | 478 kts | 286° |
| 2026-04-21 20:28 | 2.41871 | 102.47444 | 24601 ft | 479 kts | 286° |
| 2026-04-21 20:28 | 2.42809 | 102.44229 | 24768 ft | 480 kts | 286° |
| 2026-04-21 20:29 | 2.43744 | 102.41024 | 24900 ft | 481 kts | 286° |
| 2026-04-21 20:29 | 2.44775 | 102.37835 | 25032 ft | 482 kts | 291° |
| 2026-04-21 20:29 | 2.46204 | 102.34801 | 25173 ft | 483 kts | 300° |
| 2026-04-21 20:29 | 2.48106 | 102.32026 | 25309 ft | 483 kts | 310° |
| 2026-04-21 20:30 | 2.50418 | 102.29652 | 25439 ft | 484 kts | 318° |
| 2026-04-21 20:30 | 2.52983 | 102.27458 | 25582 ft | 485 kts | 321° |
| 2026-04-21 20:30 | 2.55620 | 102.25357 | 25721 ft | 486 kts | 322° |
| 2026-04-21 20:30 | 2.58297 | 102.23291 | 25859 ft | 486 kts | 323° |
| 2026-04-21 20:31 | 2.60983 | 102.21236 | 25989 ft | 487 kts | 323° |
| 2026-04-21 20:31 | 2.63680 | 102.19166 | 26137 ft | 488 kts | 322° |
| 2026-04-21 20:31 | 2.66362 | 102.17088 | 26285 ft | 489 kts | 322° |
| 2026-04-21 20:31 | 2.69047 | 102.14994 | 26436 ft | 489 kts | 322° |
| 2026-04-21 20:32 | 2.71732 | 102.12889 | 26571 ft | 490 kts | 322° |
| 2026-04-21 20:32 | 2.74421 | 102.10777 | 26699 ft | 491 kts | 322° |
| 2026-04-21 20:32 | 2.77074 | 102.08692 | 26819 ft | 492 kts | 322° |
| 2026-04-21 20:32 | 2.79770 | 102.06574 | 26932 ft | 493 kts | 322° |
| 2026-04-21 20:33 | 2.82468 | 102.04454 | 27077 ft | 493 kts | 322° |
| 2026-04-21 20:33 | 2.85172 | 102.02331 | 27209 ft | 494 kts | 322° |
| 2026-04-21 20:33 | 2.87877 | 102.00206 | 27320 ft | 495 kts | 322° |
| 2026-04-21 20:33 | 2.90591 | 101.98075 | 27424 ft | 496 kts | 322° |
| 2026-04-21 20:34 | 2.93310 | 101.95940 | 27542 ft | 497 kts | 322° |
| 2026-04-21 20:34 | 2.96029 | 101.93804 | 27664 ft | 497 kts | 322° |
| 2026-04-21 20:34 | 2.98752 | 101.91666 | 27772 ft | 498 kts | 322° |
| 2026-04-21 20:34 | 3.01482 | 101.89524 | 27893 ft | 499 kts | 322° |
| 2026-04-21 20:35 | 3.04218 | 101.87374 | 27984 ft | 500 kts | 322° |
| 2026-04-21 20:35 | 3.06949 | 101.85228 | 28099 ft | 500 kts | 323° |
| 2026-04-21 20:35 | 3.09699 | 101.83068 | 28204 ft | 501 kts | 323° |
| 2026-04-21 20:35 | 3.12412 | 101.80937 | 28311 ft | 502 kts | 323° |
| 2026-04-21 20:36 | 3.17921 | 101.76608 | 28486 ft | 504 kts | 323° |
| 2026-04-21 20:36 | 3.20675 | 101.74444 | 28600 ft | 504 kts | 323° |
| 2026-04-21 20:36 | 3.23439 | 101.72271 | 28681 ft | 505 kts | 323° |
| 2026-04-21 20:37 | 3.28969 | 101.67923 | 28858 ft | 506 kts | 323° |
| 2026-04-21 20:37 | 3.34830 | 101.64036 | 29015 ft | 505 kts | 334° |
| 2026-04-21 20:38 | 3.41202 | 101.61029 | 29167 ft | 506 kts | 337° |
| 2026-04-21 20:38 | 3.47609 | 101.58199 | 29343 ft | 507 kts | 338° |
| 2026-04-21 20:39 | 3.54079 | 101.55356 | 29503 ft | 509 kts | 337° |
| 2026-04-21 20:39 | 3.60566 | 101.52484 | 29672 ft | 509 kts | 337° |
| 2026-04-21 20:40 | 3.63807 | 101.51044 | 29804 ft | 509 kts | 337° |
| 2026-04-21 20:40 | 3.67036 | 101.49606 | 29939 ft | 508 kts | 337° |
| 2026-04-21 20:40 | 3.70269 | 101.48166 | 30066 ft | 508 kts | 337° |
| 2026-04-21 20:40 | 3.73498 | 101.46728 | 30182 ft | 508 kts | 337° |
| 2026-04-21 20:41 | 3.76725 | 101.45293 | 30297 ft | 508 kts | 337° |
| 2026-04-21 20:41 | 3.79957 | 101.43857 | 30458 ft | 507 kts | 337° |
| 2026-04-21 20:41 | 3.83188 | 101.42419 | 30598 ft | 507 kts | 337° |
| 2026-04-21 20:41 | 3.86405 | 101.40989 | 30742 ft | 506 kts | 337° |
| 2026-04-21 20:42 | 3.89626 | 101.39559 | 30876 ft | 506 kts | 337° |
| 2026-04-21 20:42 | 3.92850 | 101.38123 | 31038 ft | 506 kts | 337° |
| 2026-04-21 20:42 | 3.96058 | 101.36694 | 31196 ft | 505 kts | 337° |
| 2026-04-21 20:42 | 3.99227 | 101.35284 | 31330 ft | 505 kts | 337° |
| 2026-04-21 20:43 | 4.02437 | 101.33856 | 31473 ft | 504 kts | 337° |
| 2026-04-21 20:43 | 4.05646 | 101.32428 | 31614 ft | 504 kts | 337° |
| 2026-04-21 20:43 | 4.08849 | 101.31003 | 31765 ft | 504 kts | 337° |
| 2026-04-21 20:43 | 4.12046 | 101.29579 | 31915 ft | 502 kts | 337° |
| 2026-04-21 20:44 | 4.15245 | 101.28155 | 32047 ft | 502 kts | 337° |
| 2026-04-21 20:44 | 4.18440 | 101.26733 | 32187 ft | 502 kts | 337° |
| 2026-04-21 20:44 | 4.21628 | 101.25314 | 32323 ft | 502 kts | 337° |
| 2026-04-21 20:44 | 4.24818 | 101.23894 | 32490 ft | 501 kts | 337° |
| 2026-04-21 20:45 | 4.28004 | 101.22475 | 32623 ft | 501 kts | 337° |
| 2026-04-21 20:45 | 4.31189 | 101.21056 | 32768 ft | 501 kts | 337° |
| 2026-04-21 20:45 | 4.34372 | 101.19638 | 32933 ft | 500 kts | 337° |
| 2026-04-21 20:45 | 4.37550 | 101.18223 | 33079 ft | 500 kts | 337° |
| 2026-04-21 20:46 | 4.40729 | 101.16808 | 33236 ft | 499 kts | 337° |
| 2026-04-21 20:46 | 4.43858 | 101.15414 | 33361 ft | 499 kts | 337° |
| 2026-04-21 20:46 | 4.47027 | 101.14002 | 33533 ft | 498 kts | 337° |
| 2026-04-21 20:46 | 4.50191 | 101.12593 | 33693 ft | 498 kts | 337° |
| 2026-04-21 20:47 | 4.53359 | 101.11182 | 33822 ft | 498 kts | 337° |
| 2026-04-21 20:47 | 4.56522 | 101.09773 | 33971 ft | 497 kts | 337° |
| 2026-04-21 20:47 | 4.59689 | 101.08366 | 34113 ft | 497 kts | 337° |
| 2026-04-21 20:47 | 4.62865 | 101.06984 | 34258 ft | 497 kts | 338° |
| 2026-04-21 20:48 | 4.66039 | 101.05623 | 34407 ft | 496 kts | 338° |
| 2026-04-21 20:48 | 4.69221 | 101.04264 | 34547 ft | 496 kts | 338° |
| 2026-04-21 20:48 | 4.72392 | 101.02908 | 34667 ft | 496 kts | 338° |
| 2026-04-21 20:48 | 4.75566 | 101.01547 | 34793 ft | 496 kts | 338° |
| 2026-04-21 20:49 | 4.78737 | 101.00184 | 34927 ft | 496 kts | 338° |
| 2026-04-21 20:49 | 4.81867 | 100.98839 | 35043 ft | 496 kts | 338° |
| 2026-04-21 20:49 | 4.85037 | 100.97473 | 35164 ft | 496 kts | 338° |
| 2026-04-21 20:49 | 4.88200 | 100.96108 | 35300 ft | 495 kts | 338° |
| 2026-04-21 20:50 | 4.91362 | 100.94743 | 35428 ft | 495 kts | 338° |
| 2026-04-21 20:50 | 4.94532 | 100.93376 | 35550 ft | 495 kts | 338° |
| 2026-04-21 20:50 | 4.97692 | 100.92013 | 35676 ft | 495 kts | 338° |
| 2026-04-21 20:50 | 5.00853 | 100.90653 | 35802 ft | 495 kts | 338° |
| 2026-04-21 20:51 | 5.07219 | 100.87905 | 35831 ft | 501 kts | 338° |
| 2026-04-21 20:51 | 5.13632 | 100.85127 | 35832 ft | 501 kts | 338° |
| 2026-04-21 20:52 | 5.20031 | 100.82354 | 35832 ft | 501 kts | 338° |
| 2026-04-21 20:52 | 5.26432 | 100.79586 | 35832 ft | 501 kts | 338° |
| 2026-04-21 20:53 | 5.32795 | 100.76839 | 35833 ft | 501 kts | 338° |
| 2026-04-21 20:53 | 5.39092 | 100.73818 | 35829 ft | 502 kts | 333° |
| 2026-04-21 20:54 | 5.45213 | 100.70421 | 35834 ft | 502 kts | 332° |
| 2026-04-21 20:54 | 5.51296 | 100.66970 | 35830 ft | 502 kts | 332° |
| 2026-04-21 20:55 | 5.57345 | 100.63535 | 35833 ft | 502 kts | 332° |
| 2026-04-21 20:55 | 5.63432 | 100.60086 | 35831 ft | 502 kts | 332° |
| 2026-04-21 20:56 | 5.69534 | 100.56636 | 35833 ft | 503 kts | 332° |
| 2026-04-21 20:56 | 5.75634 | 100.53185 | 35832 ft | 503 kts | 332° |
| 2026-04-21 20:57 | 5.81722 | 100.49714 | 35832 ft | 503 kts | 331° |
| 2026-04-21 20:57 | 5.87728 | 100.46097 | 35833 ft | 503 kts | 330° |
| 2026-04-21 20:58 | 5.93680 | 100.42474 | 35829 ft | 503 kts | 330° |
| 2026-04-21 20:58 | 5.99687 | 100.38849 | 35831 ft | 503 kts | 330° |
| 2026-04-21 20:59 | 6.05701 | 100.35235 | 35834 ft | 504 kts | 330° |
| 2026-04-21 20:59 | 6.11721 | 100.31625 | 35834 ft | 504 kts | 330° |
| 2026-04-21 21:00 | 6.17734 | 100.28015 | 35831 ft | 504 kts | 330° |
| 2026-04-21 21:00 | 6.23750 | 100.24399 | 35830 ft | 504 kts | 330° |
| 2026-04-21 21:01 | 6.29770 | 100.20778 | 35833 ft | 504 kts | 330° |
| 2026-04-21 21:01 | 6.35789 | 100.17159 | 35832 ft | 504 kts | 330° |
| 2026-04-21 21:02 | 6.41712 | 100.13472 | 35835 ft | 505 kts | 325° |
| 2026-04-21 21:02 | 6.46887 | 100.08669 | 35835 ft | 506 kts | 315° |
| 2026-04-21 21:03 | 6.51680 | 100.03456 | 35831 ft | 508 kts | 313° |
| 2026-04-21 21:03 | 6.56410 | 99.98177 | 35830 ft | 508 kts | 313° |
| 2026-04-21 21:04 | 6.61150 | 99.92905 | 35831 ft | 508 kts | 314° |
| 2026-04-21 21:04 | 6.65878 | 99.87677 | 35833 ft | 508 kts | 314° |
| 2026-04-21 21:05 | 6.70645 | 99.82413 | 35829 ft | 508 kts | 314° |
| 2026-04-21 21:05 | 6.75407 | 99.77154 | 35833 ft | 508 kts | 314° |
| 2026-04-21 21:06 | 6.80169 | 99.71889 | 35829 ft | 508 kts | 314° |
| 2026-04-21 21:06 | 6.84929 | 99.66622 | 35829 ft | 508 kts | 314° |
| 2026-04-21 21:07 | 6.89653 | 99.61395 | 35833 ft | 508 kts | 314° |
| 2026-04-21 21:07 | 6.94408 | 99.56129 | 35836 ft | 508 kts | 314° |
| 2026-04-21 21:08 | 6.99167 | 99.50860 | 35843 ft | 508 kts | 314° |
| 2026-04-21 21:08 | 7.03960 | 99.45635 | 35845 ft | 508 kts | 315° |
| 2026-04-21 21:09 | 7.08832 | 99.40473 | 35844 ft | 508 kts | 315° |
| 2026-04-21 21:09 | 7.13707 | 99.35312 | 35848 ft | 508 kts | 315° |
| 2026-04-21 21:10 | 7.17750 | 99.31011 | 35852 ft | 508 kts | 315° |
| 2026-04-21 21:10 | 7.22614 | 99.25824 | 35852 ft | 509 kts | 315° |
| 2026-04-21 21:11 | 7.27475 | 99.20634 | 35848 ft | 509 kts | 315° |
| 2026-04-21 21:11 | 7.32334 | 99.15447 | 35850 ft | 509 kts | 315° |
| 2026-04-21 21:12 | 7.37192 | 99.10257 | 35848 ft | 509 kts | 315° |
| 2026-04-21 21:12 | 7.42056 | 99.05059 | 35848 ft | 508 kts | 315° |
| 2026-04-21 21:13 | 7.46912 | 98.99871 | 35855 ft | 509 kts | 315° |
| 2026-04-21 21:13 | 7.51740 | 98.94713 | 35850 ft | 509 kts | 314° |
| 2026-04-21 21:14 | 7.56599 | 98.89515 | 35846 ft | 509 kts | 314° |
| 2026-04-21 21:14 | 7.61459 | 98.84315 | 35835 ft | 510 kts | 314° |
| 2026-04-21 21:15 | 7.66330 | 98.79101 | 35830 ft | 510 kts | 314° |
| 2026-04-21 21:15 | 7.71199 | 98.73888 | 35831 ft | 511 kts | 314° |
| 2026-04-21 21:16 | 7.76065 | 98.68664 | 35828 ft | 511 kts | 314° |
| 2026-04-21 21:16 | 7.80922 | 98.63426 | 35832 ft | 511 kts | 314° |
| 2026-04-21 21:17 | 7.85784 | 98.58204 | 35833 ft | 511 kts | 314° |
| 2026-04-21 21:17 | 7.90660 | 98.52977 | 35833 ft | 511 kts | 314° |
| 2026-04-21 21:18 | 7.95535 | 98.47751 | 35830 ft | 512 kts | 314° |
| 2026-04-21 21:18 | 8.00375 | 98.42553 | 35833 ft | 512 kts | 314° |
| 2026-04-21 21:19 | 8.05248 | 98.37319 | 35828 ft | 512 kts | 314° |
| 2026-04-21 21:19 | 8.10226 | 98.32192 | 35830 ft | 511 kts | 321° |
| 2026-04-21 21:20 | 8.16152 | 98.28312 | 35833 ft | 508 kts | 333° |
| 2026-04-21 21:20 | 8.22451 | 98.25068 | 35833 ft | 508 kts | 335° |
| 2026-04-21 21:21 | 8.28797 | 98.21925 | 35834 ft | 508 kts | 335° |
| 2026-04-21 21:21 | 8.35142 | 98.18768 | 35835 ft | 508 kts | 335° |
| 2026-04-21 21:22 | 8.41475 | 98.15592 | 35833 ft | 508 kts | 335° |
| 2026-04-21 21:22 | 8.47801 | 98.12409 | 35833 ft | 508 kts | 335° |
| 2026-04-21 21:23 | 8.54131 | 98.09221 | 35833 ft | 508 kts | 335° |
| 2026-04-21 21:23 | 8.60416 | 98.06064 | 35833 ft | 508 kts | 335° |
| 2026-04-21 21:24 | 8.66738 | 98.02884 | 35840 ft | 507 kts | 335° |
| 2026-04-21 21:24 | 8.73054 | 97.99703 | 35844 ft | 507 kts | 335° |
| 2026-04-21 21:25 | 8.79369 | 97.96525 | 35842 ft | 507 kts | 335° |
| 2026-04-21 21:25 | 8.85703 | 97.93338 | 35838 ft | 508 kts | 335° |
| 2026-04-21 21:26 | 8.92035 | 97.90147 | 35837 ft | 508 kts | 335° |
| 2026-04-21 21:26 | 8.98315 | 97.86982 | 35840 ft | 508 kts | 335° |
| 2026-04-21 21:27 | 9.04639 | 97.83795 | 35840 ft | 508 kts | 335° |
| 2026-04-21 21:27 | 9.10966 | 97.80599 | 35839 ft | 507 kts | 335° |
| 2026-04-21 21:28 | 9.17283 | 97.77407 | 35838 ft | 507 kts | 335° |
| 2026-04-21 21:29 | 9.26731 | 97.72629 | 35841 ft | 507 kts | 335° |
| 2026-04-21 21:29 | 9.33048 | 97.69433 | 35835 ft | 508 kts | 335° |
| 2026-04-21 21:30 | 9.39372 | 97.66236 | 35842 ft | 507 kts | 335° |
| 2026-04-21 21:30 | 9.45696 | 97.63037 | 35853 ft | 507 kts | 335° |
| 2026-04-21 21:31 | 9.52009 | 97.59838 | 35857 ft | 507 kts | 335° |
| 2026-04-21 21:31 | 9.58323 | 97.56639 | 35843 ft | 507 kts | 334° |
| 2026-04-21 21:32 | 9.64635 | 97.53441 | 35823 ft | 507 kts | 334° |
| 2026-04-21 21:32 | 9.70902 | 97.50264 | 35823 ft | 507 kts | 334° |
| 2026-04-21 21:33 | 9.77213 | 97.47063 | 35822 ft | 507 kts | 334° |
| 2026-04-21 21:33 | 9.83525 | 97.43860 | 35822 ft | 507 kts | 334° |
| 2026-04-21 21:34 | 9.89838 | 97.40655 | 35824 ft | 507 kts | 334° |
| 2026-04-21 21:34 | 9.96159 | 97.37445 | 35822 ft | 507 kts | 334° |
| 2026-04-21 21:35 | 10.02465 | 97.34246 | 35823 ft | 507 kts | 334° |
| 2026-04-21 21:35 | 10.08743 | 97.31086 | 35822 ft | 507 kts | 335° |
| 2026-04-21 21:36 | 10.15066 | 97.27912 | 35822 ft | 507 kts | 335° |
| 2026-04-21 21:36 | 10.21397 | 97.24727 | 35823 ft | 507 kts | 335° |
| 2026-04-21 21:37 | 10.27720 | 97.21542 | 35845 ft | 507 kts | 334° |
| 2026-04-21 21:37 | 10.34043 | 97.18356 | 35848 ft | 507 kts | 334° |
| 2026-04-21 21:38 | 10.40362 | 97.15171 | 35846 ft | 507 kts | 334° |
| 2026-04-21 21:38 | 10.46689 | 97.11981 | 35846 ft | 507 kts | 334° |
| 2026-04-21 21:39 | 10.52962 | 97.08814 | 35851 ft | 507 kts | 334° |
| 2026-04-21 21:39 | 10.59293 | 97.05620 | 35847 ft | 507 kts | 334° |
| 2026-04-21 21:40 | 10.65617 | 97.02429 | 35849 ft | 507 kts | 334° |
| 2026-04-21 21:40 | 10.71937 | 96.99237 | 35846 ft | 507 kts | 334° |
| 2026-04-21 21:41 | 10.78253 | 96.96043 | 35850 ft | 507 kts | 334° |
| 2026-04-21 21:41 | 10.84576 | 96.92842 | 35846 ft | 507 kts | 334° |
| 2026-04-21 21:42 | 10.90888 | 96.89652 | 35840 ft | 507 kts | 334° |
| 2026-04-21 21:42 | 10.97165 | 96.86475 | 35843 ft | 507 kts | 334° |
| 2026-04-21 21:43 | 11.03480 | 96.83276 | 35846 ft | 507 kts | 334° |
| 2026-04-21 21:43 | 11.09799 | 96.80075 | 35838 ft | 507 kts | 334° |
| 2026-04-21 21:44 | 11.16113 | 96.76872 | 35842 ft | 507 kts | 334° |
| 2026-04-21 21:44 | 11.22435 | 96.73666 | 35837 ft | 507 kts | 334° |
| 2026-04-21 21:45 | 11.28745 | 96.70466 | 35841 ft | 507 kts | 334° |
| 2026-04-21 21:45 | 11.35021 | 96.67278 | 35839 ft | 507 kts | 334° |
| 2026-04-21 21:46 | 11.41339 | 96.64068 | 35840 ft | 507 kts | 334° |
| 2026-04-21 21:46 | 11.47654 | 96.60862 | 35842 ft | 506 kts | 334° |
| 2026-04-21 21:47 | 11.53969 | 96.57652 | 35839 ft | 507 kts | 334° |
| 2026-04-21 21:47 | 11.60279 | 96.54441 | 35839 ft | 507 kts | 334° |
| 2026-04-21 21:48 | 11.66591 | 96.51229 | 35839 ft | 507 kts | 334° |
| 2026-04-21 21:48 | 11.72905 | 96.48014 | 35828 ft | 507 kts | 334° |
| 2026-04-21 21:49 | 11.79223 | 96.44795 | 35836 ft | 507 kts | 334° |
| 2026-04-21 21:49 | 11.85503 | 96.41595 | 35831 ft | 508 kts | 334° |
| 2026-04-21 21:50 | 11.91441 | 96.37721 | 35832 ft | 508 kts | 319° |
| 2026-04-21 21:50 | 11.96576 | 96.32759 | 35832 ft | 509 kts | 315° |
| 2026-04-21 21:51 | 12.01566 | 96.27624 | 35826 ft | 509 kts | 314° |
| 2026-04-21 21:51 | 12.06541 | 96.22471 | 35830 ft | 509 kts | 315° |
| 2026-04-21 21:52 | 12.11522 | 96.17337 | 35835 ft | 509 kts | 315° |
| 2026-04-21 21:52 | 12.16517 | 96.12204 | 35837 ft | 509 kts | 315° |
| 2026-04-21 21:53 | 12.21509 | 96.07076 | 35827 ft | 508 kts | 315° |
| 2026-04-21 21:53 | 12.26501 | 96.01946 | 35826 ft | 509 kts | 315° |
| 2026-04-21 21:54 | 12.31489 | 95.96818 | 35837 ft | 509 kts | 315° |
| 2026-04-21 21:54 | 12.36441 | 95.91721 | 35833 ft | 509 kts | 315° |
| 2026-04-21 21:55 | 12.41442 | 95.86570 | 35828 ft | 509 kts | 315° |
| 2026-04-21 21:55 | 12.46425 | 95.81433 | 35829 ft | 509 kts | 314° |
| 2026-04-21 21:56 | 12.51412 | 95.76291 | 35826 ft | 508 kts | 314° |
| 2026-04-21 21:56 | 12.56394 | 95.71153 | 35833 ft | 508 kts | 314° |
| 2026-04-21 21:57 | 12.61347 | 95.66043 | 35829 ft | 508 kts | 314° |
| 2026-04-21 21:57 | 12.66324 | 95.60900 | 35830 ft | 508 kts | 314° |
| 2026-04-21 21:58 | 12.71297 | 95.55761 | 35834 ft | 508 kts | 314° |
| 2026-04-21 21:58 | 12.75436 | 95.51483 | 35831 ft | 508 kts | 314° |
| 2026-04-21 21:59 | 12.80408 | 95.46341 | 35829 ft | 508 kts | 314° |
| 2026-04-21 21:59 | 12.85377 | 95.41197 | 35831 ft | 507 kts | 314° |
| 2026-04-21 22:00 | 12.90291 | 95.36012 | 35825 ft | 507 kts | 313° |
| 2026-04-21 22:00 | 12.95171 | 95.30792 | 35832 ft | 507 kts | 313° |
| 2026-04-21 22:01 | 13.00050 | 95.25582 | 35834 ft | 507 kts | 313° |
| 2026-04-21 22:01 | 13.04950 | 95.20364 | 35831 ft | 506 kts | 313° |
| 2026-04-21 22:02 | 13.09809 | 95.15194 | 35829 ft | 507 kts | 313° |
| 2026-04-21 22:02 | 13.14696 | 95.09990 | 35823 ft | 506 kts | 313° |
| 2026-04-21 22:03 | 13.19584 | 95.04776 | 35823 ft | 506 kts | 313° |
| 2026-04-21 22:03 | 13.24471 | 94.99561 | 35822 ft | 507 kts | 313° |
| 2026-04-21 22:04 | 13.29355 | 94.94348 | 35822 ft | 507 kts | 313° |
| 2026-04-21 22:04 | 13.34247 | 94.89123 | 35822 ft | 507 kts | 313° |
| 2026-04-21 22:05 | 13.39135 | 94.83899 | 35822 ft | 507 kts | 313° |
| 2026-04-21 22:05 | 13.44023 | 94.78670 | 35823 ft | 507 kts | 313° |
| 2026-04-21 22:06 | 13.48878 | 94.73476 | 35823 ft | 507 kts | 313° |
| 2026-04-21 22:06 | 13.53768 | 94.68239 | 35823 ft | 507 kts | 313° |
| 2026-04-21 22:07 | 13.58656 | 94.63002 | 35823 ft | 507 kts | 313° |
| 2026-04-21 22:07 | 13.63543 | 94.57762 | 35822 ft | 507 kts | 313° |
| 2026-04-21 22:08 | 13.68431 | 94.52519 | 35823 ft | 507 kts | 313° |
| 2026-04-21 22:08 | 13.73291 | 94.47302 | 35823 ft | 507 kts | 313° |
| 2026-04-21 22:09 | 13.78173 | 94.42060 | 35821 ft | 507 kts | 313° |
| 2026-04-21 22:09 | 13.83056 | 94.36810 | 35812 ft | 507 kts | 313° |
| 2026-04-21 22:10 | 13.87940 | 94.31552 | 35813 ft | 508 kts | 313° |
| 2026-04-21 22:10 | 13.92822 | 94.26298 | 35814 ft | 507 kts | 313° |
| 2026-04-21 22:11 | 13.97700 | 94.21047 | 35814 ft | 507 kts | 313° |
| 2026-04-21 22:11 | 14.02579 | 94.15788 | 35813 ft | 508 kts | 313° |
| 2026-04-21 22:12 | 14.07468 | 94.10517 | 35813 ft | 508 kts | 313° |
| 2026-04-21 22:12 | 14.12345 | 94.05254 | 35814 ft | 507 kts | 313° |
| 2026-04-21 22:13 | 14.17188 | 94.00024 | 35814 ft | 508 kts | 313° |
| 2026-04-21 22:13 | 14.22067 | 93.94753 | 35812 ft | 507 kts | 313° |
| 2026-04-21 22:14 | 14.26938 | 93.89489 | 35813 ft | 507 kts | 313° |
| 2026-04-21 22:14 | 14.31809 | 93.84219 | 35813 ft | 507 kts | 313° |
| 2026-04-21 22:15 | 14.36671 | 93.78953 | 35813 ft | 507 kts | 313° |
| 2026-04-21 22:15 | 14.41539 | 93.73675 | 35813 ft | 507 kts | 313° |
| 2026-04-21 22:16 | 14.46403 | 93.68401 | 35814 ft | 507 kts | 313° |
| 2026-04-21 22:16 | 14.51262 | 93.63131 | 35813 ft | 506 kts | 313° |
| 2026-04-21 22:17 | 14.56112 | 93.57864 | 35813 ft | 506 kts | 312° |
| 2026-04-21 22:17 | 14.60957 | 93.52600 | 35813 ft | 505 kts | 312° |
| 2026-04-21 22:18 | 14.65768 | 93.47371 | 35813 ft | 505 kts | 312° |
| 2026-04-21 22:18 | 14.70604 | 93.42110 | 35813 ft | 504 kts | 312° |
| 2026-04-21 22:19 | 14.75430 | 93.36856 | 35813 ft | 505 kts | 312° |
| 2026-04-21 22:19 | 14.80267 | 93.31589 | 35814 ft | 504 kts | 312° |
| 2026-04-21 22:20 | 14.85084 | 93.26335 | 35814 ft | 503 kts | 312° |
| 2026-04-21 22:20 | 14.89903 | 93.21079 | 35813 ft | 503 kts | 312° |
| 2026-04-21 22:21 | 14.94716 | 93.15827 | 35814 ft | 503 kts | 312° |
| 2026-04-21 22:21 | 14.99524 | 93.10575 | 35814 ft | 503 kts | 312° |
| 2026-04-21 22:22 | 15.04328 | 93.05322 | 35813 ft | 503 kts | 312° |
| 2026-04-21 22:22 | 15.09131 | 93.00079 | 35813 ft | 502 kts | 312° |
| 2026-04-21 22:23 | 15.13903 | 92.94849 | 35813 ft | 502 kts | 312° |
| 2026-04-21 22:23 | 15.18698 | 92.89590 | 35813 ft | 502 kts | 311° |
| 2026-04-21 22:24 | 15.23491 | 92.84334 | 35813 ft | 502 kts | 311° |
| 2026-04-21 22:24 | 15.28284 | 92.79075 | 35813 ft | 502 kts | 311° |
| 2026-04-21 22:25 | 15.33071 | 92.73821 | 35812 ft | 502 kts | 311° |
| 2026-04-21 22:25 | 15.37863 | 92.68559 | 35814 ft | 502 kts | 311° |
| 2026-04-21 22:26 | 15.42654 | 92.63293 | 35812 ft | 501 kts | 311° |
| 2026-04-21 22:26 | 15.47520 | 92.58106 | 35813 ft | 502 kts | 313° |
| 2026-04-21 22:27 | 15.52482 | 92.53011 | 35814 ft | 502 kts | 313° |
| 2026-04-21 22:27 | 15.57409 | 92.47937 | 35813 ft | 502 kts | 313° |
| 2026-04-21 22:28 | 15.62342 | 92.42817 | 35814 ft | 502 kts | 313° |
| 2026-04-21 22:28 | 15.67269 | 92.37687 | 35813 ft | 502 kts | 313° |
| 2026-04-21 22:29 | 15.72200 | 92.32549 | 35814 ft | 501 kts | 313° |
| 2026-04-21 22:29 | 15.77121 | 92.27415 | 35812 ft | 501 kts | 313° |
| 2026-04-21 22:30 | 15.82041 | 92.22278 | 35812 ft | 501 kts | 313° |
| 2026-04-21 22:30 | 15.86959 | 92.17142 | 35814 ft | 501 kts | 313° |
| 2026-04-21 22:31 | 15.91876 | 92.12006 | 35813 ft | 501 kts | 312° |
| 2026-04-21 22:31 | 15.96791 | 92.06863 | 35813 ft | 501 kts | 312° |
| 2026-04-21 22:32 | 16.01704 | 92.01719 | 35812 ft | 501 kts | 312° |
| 2026-04-21 22:32 | 16.06590 | 91.96611 | 35813 ft | 501 kts | 312° |
| 2026-04-21 22:33 | 16.11500 | 91.91459 | 35814 ft | 501 kts | 312° |
| 2026-04-21 22:33 | 16.16412 | 91.86301 | 35814 ft | 501 kts | 312° |
| 2026-04-21 22:34 | 16.21320 | 91.81149 | 35813 ft | 501 kts | 312° |
| 2026-04-21 22:34 | 16.26229 | 91.75993 | 35802 ft | 501 kts | 312° |
| 2026-04-21 22:35 | 16.31130 | 91.70839 | 35794 ft | 501 kts | 312° |
| 2026-04-21 22:35 | 16.36037 | 91.65678 | 35793 ft | 501 kts | 312° |
| 2026-04-21 22:36 | 16.43344 | 91.57983 | 35793 ft | 500 kts | 312° |
| 2026-04-21 22:36 | 16.48261 | 91.52796 | 35797 ft | 500 kts | 311° |
| 2026-04-21 22:37 | 16.53118 | 91.47672 | 35795 ft | 499 kts | 311° |
| 2026-04-21 22:37 | 16.58008 | 91.42518 | 35795 ft | 499 kts | 311° |
| 2026-04-21 22:38 | 16.62881 | 91.37367 | 35796 ft | 499 kts | 311° |
| 2026-04-21 22:38 | 16.67751 | 91.32212 | 35797 ft | 498 kts | 311° |
| 2026-04-21 22:39 | 16.72619 | 91.27060 | 35794 ft | 498 kts | 311° |
| 2026-04-21 22:39 | 16.77482 | 91.21913 | 35797 ft | 498 kts | 311° |
| 2026-04-21 22:40 | 16.82340 | 91.16762 | 35797 ft | 498 kts | 311° |
| 2026-04-21 22:40 | 16.87162 | 91.11645 | 35793 ft | 498 kts | 311° |
| 2026-04-21 22:41 | 16.92016 | 91.06494 | 35790 ft | 497 kts | 311° |
| 2026-04-21 22:41 | 16.96879 | 91.01331 | 35790 ft | 497 kts | 311° |
| 2026-04-21 22:42 | 17.01727 | 90.96174 | 35788 ft | 497 kts | 311° |
| 2026-04-21 22:42 | 17.06575 | 90.91014 | 35788 ft | 497 kts | 310° |
| 2026-04-21 22:43 | 17.11419 | 90.85856 | 35786 ft | 497 kts | 310° |
| 2026-04-21 22:43 | 17.16236 | 90.80724 | 35787 ft | 497 kts | 310° |
| 2026-04-21 22:44 | 17.21080 | 90.75557 | 35788 ft | 497 kts | 310° |
| 2026-04-21 22:44 | 17.25911 | 90.70400 | 35795 ft | 496 kts | 310° |
| 2026-04-21 22:45 | 17.29929 | 90.66105 | 35791 ft | 496 kts | 310° |
| 2026-04-21 22:45 | 17.34760 | 90.60940 | 35794 ft | 496 kts | 310° |
| 2026-04-21 22:46 | 17.39592 | 90.55777 | 35795 ft | 496 kts | 310° |
| 2026-04-21 22:46 | 17.44448 | 90.50634 | 35795 ft | 497 kts | 311° |
| 2026-04-21 22:47 | 17.49353 | 90.45533 | 35797 ft | 497 kts | 311° |
| 2026-04-21 22:47 | 17.54257 | 90.40434 | 35794 ft | 496 kts | 311° |
| 2026-04-21 22:48 | 17.59150 | 90.35325 | 35787 ft | 497 kts | 311° |
| 2026-04-21 22:48 | 17.64039 | 90.30210 | 35787 ft | 496 kts | 311° |
| 2026-04-21 22:49 | 17.68891 | 90.25128 | 35788 ft | 496 kts | 311° |
| 2026-04-21 22:49 | 17.73781 | 90.20004 | 35788 ft | 496 kts | 310° |
| 2026-04-21 22:50 | 17.78662 | 90.14882 | 35785 ft | 496 kts | 310° |
| 2026-04-21 22:50 | 17.83544 | 90.09757 | 35788 ft | 496 kts | 310° |
| 2026-04-21 22:51 | 17.88433 | 90.04624 | 35769 ft | 496 kts | 310° |
| 2026-04-21 22:51 | 17.93307 | 89.99498 | 35771 ft | 496 kts | 310° |
| 2026-04-21 22:52 | 17.98151 | 89.94399 | 35780 ft | 496 kts | 310° |
| 2026-04-21 22:52 | 18.03023 | 89.89271 | 35780 ft | 496 kts | 310° |
| 2026-04-21 22:53 | 18.07901 | 89.84131 | 35772 ft | 496 kts | 310° |
| 2026-04-21 22:53 | 18.12772 | 89.78989 | 35771 ft | 496 kts | 310° |
| 2026-04-21 22:54 | 18.17647 | 89.73843 | 35783 ft | 496 kts | 310° |
| 2026-04-21 22:54 | 18.22513 | 89.68700 | 35768 ft | 496 kts | 310° |
| 2026-04-21 22:55 | 18.27379 | 89.63555 | 35768 ft | 496 kts | 310° |
| 2026-04-21 22:55 | 18.32209 | 89.58449 | 35784 ft | 495 kts | 310° |
| 2026-04-21 22:56 | 18.37068 | 89.53300 | 35785 ft | 495 kts | 310° |
| 2026-04-21 22:56 | 18.41914 | 89.48159 | 35767 ft | 495 kts | 310° |
| 2026-04-21 22:57 | 18.46768 | 89.43009 | 35770 ft | 495 kts | 310° |
| 2026-04-21 22:57 | 18.51612 | 89.37865 | 35782 ft | 495 kts | 310° |
| 2026-04-21 22:58 | 18.56457 | 89.32715 | 35766 ft | 494 kts | 310° |
| 2026-04-21 22:58 | 18.61299 | 89.27563 | 35766 ft | 494 kts | 310° |
| 2026-04-21 22:59 | 18.66111 | 89.22439 | 35768 ft | 494 kts | 309° |
| 2026-04-21 22:59 | 18.70956 | 89.17279 | 35765 ft | 494 kts | 309° |
| 2026-04-21 23:00 | 18.75790 | 89.12127 | 35766 ft | 494 kts | 309° |
| 2026-04-21 23:00 | 18.80622 | 89.06966 | 35768 ft | 494 kts | 309° |
| 2026-04-21 23:01 | 18.85452 | 89.01803 | 35768 ft | 494 kts | 309° |
| 2026-04-21 23:01 | 18.90280 | 88.96639 | 35765 ft | 494 kts | 309° |
| 2026-04-21 23:02 | 18.95110 | 88.91469 | 35767 ft | 494 kts | 309° |
| 2026-04-21 23:02 | 18.99933 | 88.86302 | 35767 ft | 494 kts | 309° |
| 2026-04-21 23:03 | 19.04721 | 88.81170 | 35765 ft | 493 kts | 309° |
| 2026-04-21 23:03 | 19.09534 | 88.76003 | 35767 ft | 493 kts | 309° |
| 2026-04-21 23:04 | 19.14346 | 88.70836 | 35756 ft | 493 kts | 309° |
| 2026-04-21 23:04 | 19.19152 | 88.65670 | 35757 ft | 492 kts | 309° |
| 2026-04-21 23:05 | 19.23874 | 88.60423 | 35761 ft | 491 kts | 307° |
| 2026-04-21 23:05 | 19.28525 | 88.55131 | 35756 ft | 491 kts | 307° |
| 2026-04-21 23:06 | 19.33150 | 88.49885 | 35758 ft | 491 kts | 307° |
| 2026-04-21 23:06 | 19.37817 | 88.44612 | 35761 ft | 490 kts | 307° |
| 2026-04-21 23:07 | 19.42492 | 88.39337 | 35739 ft | 491 kts | 307° |
| 2026-04-21 23:07 | 19.47163 | 88.34063 | 35739 ft | 490 kts | 307° |
| 2026-04-21 23:08 | 19.51830 | 88.28787 | 35735 ft | 490 kts | 307° |
| 2026-04-21 23:08 | 19.56496 | 88.23505 | 35728 ft | 490 kts | 307° |
| 2026-04-21 23:09 | 19.61155 | 88.18230 | 35728 ft | 490 kts | 307° |
| 2026-04-21 23:09 | 19.65812 | 88.12949 | 35730 ft | 490 kts | 307° |
| 2026-04-21 23:10 | 19.70437 | 88.07697 | 35728 ft | 490 kts | 307° |
| 2026-04-21 23:10 | 19.75088 | 88.02417 | 35731 ft | 490 kts | 307° |
| 2026-04-21 23:11 | 19.79745 | 87.97123 | 35730 ft | 489 kts | 307° |
| 2026-04-21 23:11 | 19.84397 | 87.91828 | 35731 ft | 490 kts | 307° |
| 2026-04-21 23:12 | 19.89042 | 87.86535 | 35729 ft | 489 kts | 307° |
| 2026-04-21 23:12 | 19.93686 | 87.81241 | 35728 ft | 489 kts | 307° |
| 2026-04-21 23:13 | 19.98330 | 87.75944 | 35729 ft | 489 kts | 307° |
| 2026-04-21 23:13 | 20.02936 | 87.70685 | 35731 ft | 489 kts | 307° |
| 2026-04-21 23:14 | 20.07578 | 87.65378 | 35745 ft | 489 kts | 307° |
| 2026-04-21 23:14 | 20.12204 | 87.60087 | 35752 ft | 488 kts | 307° |
| 2026-04-21 23:15 | 20.16828 | 87.54793 | 35750 ft | 488 kts | 307° |
| 2026-04-21 23:15 | 20.21447 | 87.49497 | 35747 ft | 487 kts | 306° |
| 2026-04-21 23:16 | 20.26024 | 87.44241 | 35746 ft | 487 kts | 306° |
| 2026-04-21 23:16 | 20.30634 | 87.38946 | 35771 ft | 487 kts | 306° |
| 2026-04-21 23:17 | 20.35243 | 87.33648 | 35770 ft | 487 kts | 306° |
| 2026-04-21 23:17 | 20.39843 | 87.28352 | 35766 ft | 487 kts | 306° |
| 2026-04-21 23:18 | 20.44442 | 87.23057 | 35764 ft | 486 kts | 306° |
| 2026-04-21 23:18 | 20.49026 | 87.17766 | 35759 ft | 485 kts | 306° |
| 2026-04-21 23:19 | 20.53530 | 87.12462 | 35756 ft | 484 kts | 305° |
| 2026-04-21 23:19 | 20.58030 | 87.07121 | 35756 ft | 484 kts | 305° |
| 2026-04-21 23:20 | 20.62540 | 87.01783 | 35758 ft | 483 kts | 305° |
| 2026-04-21 23:20 | 20.67070 | 86.96468 | 35757 ft | 484 kts | 305° |
| 2026-04-21 23:21 | 20.71652 | 86.91196 | 35755 ft | 484 kts | 306° |
| 2026-04-21 23:21 | 20.76237 | 86.85929 | 35760 ft | 484 kts | 306° |
| 2026-04-21 23:22 | 20.80814 | 86.80650 | 35758 ft | 484 kts | 305° |
| 2026-04-21 23:22 | 20.85402 | 86.75383 | 35758 ft | 484 kts | 306° |
| 2026-04-21 23:23 | 20.90048 | 86.70168 | 35754 ft | 484 kts | 306° |
| 2026-04-21 23:23 | 20.94704 | 86.64948 | 35765 ft | 484 kts | 306° |
| 2026-04-21 23:24 | 20.99307 | 86.59763 | 35764 ft | 483 kts | 306° |
| 2026-04-21 23:24 | 21.03927 | 86.54542 | 35766 ft | 483 kts | 306° |
| 2026-04-21 23:25 | 21.08542 | 86.49319 | 35764 ft | 482 kts | 306° |
| 2026-04-21 23:25 | 21.13162 | 86.44087 | 35769 ft | 482 kts | 305° |
| 2026-04-21 23:26 | 21.17776 | 86.38859 | 35765 ft | 482 kts | 305° |
| 2026-04-21 23:26 | 21.22371 | 86.33646 | 35765 ft | 480 kts | 305° |
| 2026-04-21 23:27 | 21.26926 | 86.28472 | 35768 ft | 480 kts | 305° |
| 2026-04-21 23:27 | 21.31506 | 86.23270 | 35766 ft | 479 kts | 305° |
| 2026-04-21 23:28 | 21.36073 | 86.18074 | 35767 ft | 478 kts | 305° |
| 2026-04-21 23:28 | 21.40636 | 86.12874 | 35768 ft | 478 kts | 305° |
| 2026-04-21 23:29 | 21.45201 | 86.07672 | 35771 ft | 478 kts | 304° |
| 2026-04-21 23:29 | 21.49754 | 86.02475 | 35776 ft | 477 kts | 304° |
| 2026-04-21 23:30 | 21.54267 | 85.97320 | 35786 ft | 476 kts | 304° |
| 2026-04-21 23:30 | 21.58816 | 85.92120 | 35786 ft | 476 kts | 304° |
| 2026-04-21 23:31 | 21.63322 | 85.86959 | 35791 ft | 475 kts | 304° |
| 2026-04-21 23:31 | 21.67870 | 85.81747 | 35795 ft | 475 kts | 304° |
| 2026-04-21 23:32 | 21.72364 | 85.76594 | 35793 ft | 474 kts | 304° |
| 2026-04-21 23:32 | 21.76879 | 85.71409 | 35805 ft | 474 kts | 304° |
| 2026-04-21 23:33 | 21.80630 | 85.67098 | 35806 ft | 474 kts | 304° |
| 2026-04-21 23:33 | 21.85140 | 85.61915 | 35811 ft | 474 kts | 304° |
| 2026-04-21 23:34 | 21.89653 | 85.56722 | 35813 ft | 474 kts | 304° |
| 2026-04-21 23:34 | 21.94171 | 85.51514 | 35815 ft | 475 kts | 304° |
| 2026-04-21 23:35 | 21.98660 | 85.46336 | 35822 ft | 475 kts | 304° |
| 2026-04-21 23:35 | 22.03176 | 85.41126 | 35820 ft | 475 kts | 304° |
| 2026-04-21 23:36 | 22.07676 | 85.35932 | 35831 ft | 472 kts | 304° |
| 2026-04-21 23:36 | 22.12149 | 85.30757 | 35834 ft | 471 kts | 304° |
| 2026-04-21 23:37 | 22.16589 | 85.25612 | 35831 ft | 470 kts | 304° |
| 2026-04-21 23:37 | 22.21041 | 85.20448 | 35834 ft | 470 kts | 303° |
| 2026-04-21 23:38 | 22.25494 | 85.15279 | 35830 ft | 470 kts | 303° |
| 2026-04-21 23:38 | 22.29950 | 85.10103 | 35845 ft | 470 kts | 303° |
| 2026-04-21 23:39 | 22.34406 | 85.04928 | 35841 ft | 470 kts | 304° |
| 2026-04-21 23:39 | 22.38851 | 84.99754 | 35840 ft | 470 kts | 303° |
| 2026-04-21 23:40 | 22.43300 | 84.94571 | 35838 ft | 469 kts | 303° |
| 2026-04-21 23:40 | 22.47709 | 84.89429 | 35864 ft | 469 kts | 303° |
| 2026-04-21 23:41 | 22.52153 | 84.84240 | 35862 ft | 469 kts | 303° |
| 2026-04-21 23:41 | 22.56610 | 84.79073 | 35858 ft | 469 kts | 304° |
| 2026-04-21 23:42 | 22.61096 | 84.73943 | 35860 ft | 469 kts | 304° |
| 2026-04-21 23:42 | 22.65545 | 84.68848 | 35859 ft | 469 kts | 304° |
| 2026-04-21 23:43 | 22.70016 | 84.63714 | 35863 ft | 468 kts | 304° |
| 2026-04-21 23:43 | 22.74483 | 84.58572 | 35867 ft | 468 kts | 304° |
| 2026-04-21 23:44 | 22.78948 | 84.53435 | 35865 ft | 468 kts | 304° |
| 2026-04-21 23:44 | 22.83403 | 84.48293 | 35852 ft | 467 kts | 303° |
| 2026-04-21 23:45 | 22.90072 | 84.40582 | 35863 ft | 467 kts | 303° |
| 2026-04-21 23:46 | 22.94513 | 84.35448 | 35866 ft | 466 kts | 303° |
| 2026-04-21 23:46 | 22.98914 | 84.30356 | 35852 ft | 466 kts | 303° |
| 2026-04-21 23:47 | 23.03343 | 84.25223 | 35859 ft | 465 kts | 303° |
| 2026-04-21 23:47 | 23.07765 | 84.20092 | 35861 ft | 465 kts | 303° |
| 2026-04-21 23:48 | 23.12179 | 84.14967 | 35857 ft | 464 kts | 303° |
| 2026-04-21 23:48 | 23.16583 | 84.09848 | 35861 ft | 463 kts | 303° |
| 2026-04-21 23:49 | 23.20978 | 84.04737 | 35857 ft | 462 kts | 303° |
| 2026-04-21 23:49 | 23.25368 | 83.99624 | 35871 ft | 462 kts | 303° |
| 2026-04-21 23:50 | 23.29744 | 83.94521 | 35852 ft | 460 kts | 303° |
| 2026-04-21 23:50 | 23.34106 | 83.89430 | 35848 ft | 459 kts | 303° |
| 2026-04-21 23:51 | 23.38432 | 83.84374 | 35816 ft | 459 kts | 303° |
| 2026-04-21 23:51 | 23.42782 | 83.79289 | 35808 ft | 458 kts | 302° |
| 2026-04-21 23:52 | 23.47117 | 83.74214 | 35814 ft | 457 kts | 303° |
| 2026-04-21 23:52 | 23.51446 | 83.69138 | 35807 ft | 457 kts | 303° |
| 2026-04-21 23:53 | 23.55771 | 83.64060 | 35801 ft | 457 kts | 303° |
| 2026-04-21 23:53 | 23.60101 | 83.58977 | 35804 ft | 457 kts | 303° |
| 2026-04-21 23:54 | 23.64426 | 83.53894 | 35802 ft | 457 kts | 303° |
| 2026-04-21 23:54 | 23.68730 | 83.48829 | 35800 ft | 458 kts | 303° |
| 2026-04-21 23:55 | 23.73080 | 83.43704 | 35797 ft | 457 kts | 303° |
| 2026-04-21 23:55 | 23.77126 | 83.38491 | 35796 ft | 450 kts | 298° |
| 2026-04-21 23:56 | 23.80907 | 83.33057 | 35795 ft | 449 kts | 297° |
| 2026-04-21 23:56 | 23.84701 | 83.27626 | 35797 ft | 450 kts | 298° |
| 2026-04-21 23:57 | 23.88550 | 83.22222 | 35792 ft | 450 kts | 298° |
| 2026-04-21 23:57 | 23.92426 | 83.16833 | 35787 ft | 450 kts | 298° |
| 2026-04-21 23:58 | 23.96298 | 83.11442 | 35785 ft | 450 kts | 298° |
| 2026-04-21 23:58 | 24.00141 | 83.06079 | 35788 ft | 450 kts | 298° |
| 2026-04-21 23:59 | 24.03991 | 83.00703 | 35781 ft | 448 kts | 298° |
| 2026-04-21 23:59 | 24.07833 | 82.95330 | 35788 ft | 448 kts | 298° |
| 2026-04-22 00:00 | 24.11670 | 82.89953 | 35789 ft | 448 kts | 298° |
| 2026-04-22 00:00 | 24.15506 | 82.84574 | 35787 ft | 448 kts | 298° |
| 2026-04-22 00:01 | 24.19316 | 82.79228 | 35787 ft | 448 kts | 298° |
| 2026-04-22 00:01 | 24.23142 | 82.73847 | 35780 ft | 447 kts | 298° |
| 2026-04-22 00:02 | 24.26973 | 82.68462 | 35776 ft | 447 kts | 298° |
| 2026-04-22 00:02 | 24.30797 | 82.63080 | 35779 ft | 447 kts | 298° |
| 2026-04-22 00:03 | 24.34613 | 82.57697 | 35773 ft | 447 kts | 298° |
| 2026-04-22 00:03 | 24.38424 | 82.52322 | 35769 ft | 447 kts | 298° |
| 2026-04-22 00:04 | 24.42238 | 82.46933 | 35783 ft | 447 kts | 298° |
| 2026-04-22 00:04 | 24.46048 | 82.41540 | 35760 ft | 447 kts | 298° |
| 2026-04-22 00:05 | 24.49840 | 82.36167 | 35756 ft | 447 kts | 298° |
| 2026-04-22 00:05 | 24.53653 | 82.30771 | 35756 ft | 447 kts | 298° |
| 2026-04-22 00:06 | 24.57468 | 82.25359 | 35752 ft | 447 kts | 298° |
| 2026-04-22 00:06 | 24.61275 | 82.19951 | 35747 ft | 446 kts | 298° |
| 2026-04-22 00:07 | 24.65073 | 82.14557 | 35748 ft | 446 kts | 298° |
| 2026-04-22 00:07 | 24.68846 | 82.09181 | 35747 ft | 446 kts | 298° |
| 2026-04-22 00:08 | 24.72649 | 82.03764 | 35748 ft | 447 kts | 298° |
| 2026-04-22 00:08 | 24.76453 | 81.98335 | 35745 ft | 448 kts | 299° |
| 2026-04-22 00:09 | 24.80259 | 81.92887 | 35729 ft | 450 kts | 300° |
| 2026-04-22 00:09 | 24.84083 | 81.87412 | 35717 ft | 451 kts | 299° |
| 2026-04-22 00:10 | 24.87916 | 81.81922 | 35722 ft | 452 kts | 300° |
| 2026-04-22 00:10 | 24.91731 | 81.76466 | 35710 ft | 452 kts | 300° |
| 2026-04-22 00:11 | 24.95571 | 81.70958 | 35713 ft | 453 kts | 300° |
| 2026-04-22 00:11 | 24.99404 | 81.65447 | 35711 ft | 453 kts | 300° |
| 2026-04-22 00:12 | 25.03242 | 81.59928 | 35711 ft | 454 kts | 300° |
| 2026-04-22 00:12 | 25.07083 | 81.54396 | 35711 ft | 454 kts | 301° |
| 2026-04-22 00:13 | 25.10905 | 81.48888 | 35711 ft | 455 kts | 301° |
| 2026-04-22 00:13 | 25.14744 | 81.43347 | 35710 ft | 455 kts | 301° |
| 2026-04-22 00:14 | 25.18628 | 81.37825 | 35711 ft | 455 kts | 302° |
| 2026-04-22 00:14 | 25.22525 | 81.32315 | 35715 ft | 455 kts | 302° |
| 2026-04-22 00:15 | 25.26424 | 81.26785 | 35725 ft | 457 kts | 302° |
| 2026-04-22 00:15 | 25.30322 | 81.21243 | 35721 ft | 457 kts | 302° |
| 2026-04-22 00:16 | 25.34209 | 81.15713 | 35724 ft | 457 kts | 302° |
| 2026-04-22 00:16 | 25.38125 | 81.10125 | 35718 ft | 457 kts | 302° |
| 2026-04-22 00:17 | 25.41997 | 81.04592 | 35722 ft | 457 kts | 302° |
| 2026-04-22 00:17 | 25.45899 | 80.99018 | 35723 ft | 458 kts | 302° |
| 2026-04-22 00:18 | 25.49798 | 80.93439 | 35720 ft | 458 kts | 302° |
| 2026-04-22 00:18 | 25.53703 | 80.87848 | 35721 ft | 458 kts | 302° |
| 2026-04-22 00:19 | 25.57599 | 80.82262 | 35733 ft | 459 kts | 303° |
| 2026-04-22 00:19 | 25.61475 | 80.76693 | 35740 ft | 459 kts | 303° |
| 2026-04-22 00:20 | 25.65373 | 80.71086 | 35739 ft | 459 kts | 303° |
| 2026-04-22 00:20 | 25.69273 | 80.65473 | 35740 ft | 460 kts | 303° |
| 2026-04-22 00:21 | 25.73169 | 80.59859 | 35737 ft | 459 kts | 303° |
| 2026-04-22 00:21 | 25.77062 | 80.54240 | 35739 ft | 459 kts | 303° |
| 2026-04-22 00:22 | 25.80302 | 80.49558 | 35740 ft | 459 kts | 303° |
| 2026-04-22 00:22 | 25.84193 | 80.43926 | 35740 ft | 460 kts | 304° |
| 2026-04-22 00:23 | 25.88091 | 80.38284 | 35739 ft | 460 kts | 304° |
| 2026-04-22 00:23 | 25.91985 | 80.32643 | 35738 ft | 460 kts | 304° |
| 2026-04-22 00:24 | 25.95874 | 80.27000 | 35738 ft | 460 kts | 304° |
| 2026-04-22 00:24 | 25.99827 | 80.21391 | 35739 ft | 461 kts | 306° |
| 2026-04-22 00:25 | 26.03872 | 80.15898 | 35739 ft | 461 kts | 306° |
| 2026-04-22 00:25 | 26.07942 | 80.10374 | 35740 ft | 461 kts | 306° |
| 2026-04-22 00:26 | 26.11985 | 80.04840 | 35740 ft | 461 kts | 306° |
| 2026-04-22 00:26 | 26.16021 | 79.99290 | 35738 ft | 461 kts | 306° |
| 2026-04-22 00:27 | 26.20022 | 79.93773 | 35741 ft | 461 kts | 306° |
| 2026-04-22 00:27 | 26.24056 | 79.88210 | 35747 ft | 461 kts | 306° |
| 2026-04-22 00:28 | 26.28082 | 79.82649 | 35738 ft | 461 kts | 306° |
| 2026-04-22 00:28 | 26.32109 | 79.77083 | 35739 ft | 461 kts | 306° |
| 2026-04-22 00:29 | 26.36138 | 79.71507 | 35747 ft | 461 kts | 306° |
| 2026-04-22 00:29 | 26.40166 | 79.65927 | 35748 ft | 461 kts | 306° |
| 2026-04-22 00:30 | 26.44183 | 79.60353 | 35748 ft | 461 kts | 306° |
| 2026-04-22 00:30 | 26.48169 | 79.54814 | 35746 ft | 461 kts | 306° |
| 2026-04-22 00:31 | 26.52185 | 79.49228 | 35750 ft | 461 kts | 306° |
| 2026-04-22 00:31 | 26.56201 | 79.43635 | 35748 ft | 461 kts | 306° |
| 2026-04-22 00:32 | 26.60208 | 79.38045 | 35757 ft | 461 kts | 307° |
| 2026-04-22 00:32 | 26.64219 | 79.32447 | 35758 ft | 460 kts | 307° |
| 2026-04-22 00:33 | 26.68223 | 79.26850 | 35758 ft | 460 kts | 307° |
| 2026-04-22 00:33 | 26.72200 | 79.21286 | 35759 ft | 461 kts | 307° |
| 2026-04-22 00:34 | 26.76198 | 79.15682 | 35758 ft | 461 kts | 307° |
| 2026-04-22 00:34 | 26.80193 | 79.10078 | 35756 ft | 461 kts | 307° |
| 2026-04-22 00:35 | 26.84190 | 79.04466 | 35759 ft | 460 kts | 307° |
| 2026-04-22 00:35 | 26.88175 | 78.98857 | 35758 ft | 460 kts | 307° |
| 2026-04-22 00:36 | 26.92163 | 78.93239 | 35757 ft | 460 kts | 307° |
| 2026-04-22 00:36 | 26.96146 | 78.87620 | 35758 ft | 460 kts | 307° |
| 2026-04-22 00:37 | 27.00129 | 78.81996 | 35752 ft | 461 kts | 307° |
| 2026-04-22 00:37 | 27.04104 | 78.76377 | 35748 ft | 460 kts | 307° |
| 2026-04-22 00:38 | 27.08082 | 78.70745 | 35747 ft | 460 kts | 307° |
| 2026-04-22 00:38 | 27.12062 | 78.65104 | 35746 ft | 460 kts | 307° |
| 2026-04-22 00:39 | 27.16008 | 78.59504 | 35730 ft | 460 kts | 307° |
| 2026-04-22 00:39 | 27.19979 | 78.53862 | 35722 ft | 460 kts | 307° |
| 2026-04-22 00:40 | 27.23946 | 78.48220 | 35724 ft | 459 kts | 307° |
| 2026-04-22 00:40 | 27.27910 | 78.42572 | 35720 ft | 460 kts | 307° |
| 2026-04-22 00:41 | 27.31837 | 78.36967 | 35721 ft | 459 kts | 307° |
| 2026-04-22 00:41 | 27.35793 | 78.31316 | 35721 ft | 459 kts | 308° |
| 2026-04-22 00:42 | 27.39744 | 78.25667 | 35720 ft | 459 kts | 308° |
| 2026-04-22 00:42 | 27.43684 | 78.20025 | 35727 ft | 458 kts | 308° |
| 2026-04-22 00:43 | 27.47624 | 78.14374 | 35730 ft | 459 kts | 308° |
| 2026-04-22 00:43 | 27.51560 | 78.08723 | 35730 ft | 458 kts | 308° |
| 2026-04-22 00:44 | 27.55470 | 78.03098 | 35727 ft | 458 kts | 308° |
| 2026-04-22 00:44 | 27.59406 | 77.97434 | 35729 ft | 459 kts | 308° |
| 2026-04-22 00:45 | 27.63340 | 77.91764 | 35730 ft | 458 kts | 308° |
| 2026-04-22 00:45 | 27.67270 | 77.86089 | 35738 ft | 458 kts | 308° |
| 2026-04-22 00:46 | 27.71201 | 77.80411 | 35738 ft | 459 kts | 308° |
| 2026-04-22 00:46 | 27.75104 | 77.74770 | 35744 ft | 458 kts | 308° |
| 2026-04-22 00:47 | 27.79029 | 77.69084 | 35748 ft | 459 kts | 308° |
| 2026-04-22 00:47 | 27.82949 | 77.63398 | 35747 ft | 458 kts | 308° |
| 2026-04-22 00:48 | 27.86863 | 77.57708 | 35759 ft | 458 kts | 308° |
| 2026-04-22 00:48 | 27.90776 | 77.52015 | 35762 ft | 459 kts | 308° |
| 2026-04-22 00:49 | 27.94687 | 77.46317 | 35769 ft | 458 kts | 308° |
| 2026-04-22 00:49 | 27.98599 | 77.40616 | 35767 ft | 459 kts | 308° |
| 2026-04-22 00:50 | 28.02510 | 77.34905 | 35766 ft | 459 kts | 308° |
| 2026-04-22 00:50 | 28.06414 | 77.29193 | 35766 ft | 458 kts | 308° |
| 2026-04-22 00:51 | 28.10292 | 77.23509 | 35784 ft | 458 kts | 308° |
| 2026-04-22 00:51 | 28.14187 | 77.17794 | 35784 ft | 458 kts | 308° |
| 2026-04-22 00:52 | 28.18088 | 77.12071 | 35780 ft | 459 kts | 308° |
| 2026-04-22 00:52 | 28.21987 | 77.06340 | 35786 ft | 459 kts | 308° |
| 2026-04-22 00:53 | 28.25884 | 77.00602 | 35781 ft | 459 kts | 308° |
| 2026-04-22 00:53 | 28.29778 | 76.94860 | 35785 ft | 459 kts | 308° |
| 2026-04-22 00:54 | 28.33671 | 76.89120 | 35770 ft | 459 kts | 308° |
| 2026-04-22 00:54 | 28.37538 | 76.83408 | 35767 ft | 460 kts | 307° |
| 2026-04-22 00:55 | 28.41432 | 76.77640 | 35767 ft | 460 kts | 307° |
| 2026-04-22 00:55 | 28.47278 | 76.68972 | 35769 ft | 460 kts | 307° |
| 2026-04-22 00:56 | 28.51166 | 76.63197 | 35768 ft | 460 kts | 307° |
| 2026-04-22 00:56 | 28.55049 | 76.57422 | 35767 ft | 460 kts | 307° |
| 2026-04-22 00:57 | 28.58936 | 76.51633 | 35768 ft | 460 kts | 307° |
| 2026-04-22 00:57 | 28.62791 | 76.45883 | 35781 ft | 460 kts | 307° |
| 2026-04-22 00:58 | 28.66672 | 76.40083 | 35783 ft | 461 kts | 307° |
| 2026-04-22 00:58 | 28.70556 | 76.34275 | 35784 ft | 460 kts | 307° |
| 2026-04-22 00:59 | 28.74438 | 76.28463 | 35785 ft | 460 kts | 307° |
| 2026-04-22 00:59 | 28.78313 | 76.22655 | 35773 ft | 460 kts | 307° |
| 2026-04-22 01:00 | 28.82174 | 76.16856 | 35767 ft | 459 kts | 307° |
| 2026-04-22 01:00 | 28.86035 | 76.11050 | 35768 ft | 459 kts | 307° |
| 2026-04-22 01:01 | 28.89866 | 76.05283 | 35769 ft | 459 kts | 307° |
| 2026-04-22 01:01 | 28.93723 | 75.99471 | 35779 ft | 459 kts | 307° |
| 2026-04-22 01:02 | 28.97574 | 75.93655 | 35785 ft | 459 kts | 307° |
| 2026-04-22 01:02 | 29.01432 | 75.87822 | 35781 ft | 460 kts | 307° |
| 2026-04-22 01:03 | 29.05290 | 75.81980 | 35783 ft | 460 kts | 307° |
| 2026-04-22 01:03 | 29.09112 | 75.76185 | 35766 ft | 459 kts | 307° |
| 2026-04-22 01:04 | 29.12962 | 75.70335 | 35766 ft | 460 kts | 307° |
| 2026-04-22 01:04 | 29.16808 | 75.64491 | 35770 ft | 459 kts | 307° |
| 2026-04-22 01:05 | 29.20641 | 75.58656 | 35767 ft | 458 kts | 307° |
| 2026-04-22 01:05 | 29.24476 | 75.52807 | 35766 ft | 458 kts | 307° |
| 2026-04-22 01:06 | 29.28301 | 75.46965 | 35769 ft | 458 kts | 307° |
| 2026-04-22 01:06 | 29.32103 | 75.41151 | 35765 ft | 458 kts | 307° |
| 2026-04-22 01:07 | 29.35921 | 75.35287 | 35770 ft | 458 kts | 307° |
| 2026-04-22 01:07 | 29.39716 | 75.29411 | 35765 ft | 459 kts | 307° |
| 2026-04-22 01:08 | 29.43512 | 75.23522 | 35765 ft | 459 kts | 307° |
| 2026-04-22 01:08 | 29.47304 | 75.17639 | 35768 ft | 459 kts | 307° |
| 2026-04-22 01:09 | 29.51098 | 75.11748 | 35766 ft | 459 kts | 307° |
| 2026-04-22 01:09 | 29.54896 | 75.05841 | 35767 ft | 460 kts | 307° |
| 2026-04-22 01:10 | 29.58688 | 74.99934 | 35766 ft | 459 kts | 307° |
| 2026-04-22 01:10 | 29.61844 | 74.95014 | 35763 ft | 460 kts | 307° |
| 2026-04-22 01:11 | 29.65635 | 74.89099 | 35757 ft | 460 kts | 307° |
| 2026-04-22 01:11 | 29.69428 | 74.83166 | 35757 ft | 460 kts | 307° |
| 2026-04-22 01:12 | 29.73194 | 74.77271 | 35756 ft | 460 kts | 307° |
| 2026-04-22 01:12 | 29.76983 | 74.71330 | 35756 ft | 460 kts | 307° |
| 2026-04-22 01:13 | 29.80768 | 74.65384 | 35760 ft | 460 kts | 307° |
| 2026-04-22 01:13 | 29.84551 | 74.59437 | 35755 ft | 460 kts | 307° |
| 2026-04-22 01:14 | 29.88333 | 74.53481 | 35784 ft | 461 kts | 307° |
| 2026-04-22 01:14 | 29.92116 | 74.47511 | 35789 ft | 461 kts | 307° |
| 2026-04-22 01:15 | 29.95900 | 74.41532 | 35780 ft | 461 kts | 307° |
| 2026-04-22 01:15 | 29.99679 | 74.35555 | 35784 ft | 461 kts | 307° |
| 2026-04-22 01:16 | 30.03427 | 74.29617 | 35788 ft | 460 kts | 307° |
| 2026-04-22 01:16 | 30.07196 | 74.23640 | 35788 ft | 460 kts | 307° |
| 2026-04-22 01:17 | 30.10966 | 74.17651 | 35788 ft | 461 kts | 307° |
| 2026-04-22 01:17 | 30.14728 | 74.11664 | 35786 ft | 460 kts | 307° |
| 2026-04-22 01:18 | 30.18493 | 74.05662 | 35782 ft | 460 kts | 307° |
| 2026-04-22 01:18 | 30.22253 | 73.99661 | 35786 ft | 460 kts | 307° |
| 2026-04-22 01:19 | 30.26008 | 73.93666 | 35786 ft | 461 kts | 307° |
| 2026-04-22 01:19 | 30.29747 | 73.87703 | 35786 ft | 461 kts | 307° |
| 2026-04-22 01:20 | 30.33520 | 73.81676 | 35784 ft | 461 kts | 306° |
| 2026-04-22 01:20 | 30.37284 | 73.75655 | 35769 ft | 461 kts | 306° |
| 2026-04-22 01:21 | 30.41047 | 73.69627 | 35772 ft | 462 kts | 306° |
| 2026-04-22 01:21 | 30.44785 | 73.63626 | 35768 ft | 462 kts | 306° |
| 2026-04-22 01:22 | 30.48543 | 73.57582 | 35768 ft | 462 kts | 306° |
| 2026-04-22 01:22 | 30.52299 | 73.51530 | 35775 ft | 462 kts | 306° |
| 2026-04-22 01:23 | 30.56058 | 73.45474 | 35767 ft | 463 kts | 306° |
| 2026-04-22 01:23 | 30.59816 | 73.39410 | 35768 ft | 463 kts | 306° |
| 2026-04-22 01:24 | 30.63572 | 73.33338 | 35771 ft | 463 kts | 306° |
| 2026-04-22 01:24 | 30.67335 | 73.27245 | 35769 ft | 464 kts | 306° |
| 2026-04-22 01:25 | 30.71092 | 73.21157 | 35783 ft | 464 kts | 306° |
| 2026-04-22 01:25 | 30.74855 | 73.15048 | 35787 ft | 464 kts | 305° |
| 2026-04-22 01:26 | 30.78610 | 73.08941 | 35784 ft | 465 kts | 305° |
| 2026-04-22 01:26 | 30.82342 | 73.02864 | 35767 ft | 465 kts | 305° |
| 2026-04-22 01:27 | 30.86098 | 72.96738 | 35774 ft | 465 kts | 305° |
| 2026-04-22 01:27 | 30.89858 | 72.90596 | 35767 ft | 466 kts | 305° |
| 2026-04-22 01:28 | 30.93615 | 72.84449 | 35771 ft | 466 kts | 305° |
| 2026-04-22 01:28 | 30.97375 | 72.78291 | 35767 ft | 466 kts | 305° |
| 2026-04-22 01:29 | 31.01127 | 72.72132 | 35770 ft | 466 kts | 305° |
| 2026-04-22 01:29 | 31.04853 | 72.66010 | 35764 ft | 466 kts | 305° |
| 2026-04-22 01:30 | 31.08599 | 72.59844 | 35766 ft | 466 kts | 304° |
| 2026-04-22 01:30 | 31.12342 | 72.53672 | 35766 ft | 465 kts | 304° |
| 2026-04-22 01:31 | 31.16074 | 72.47509 | 35767 ft | 465 kts | 304° |
| 2026-04-22 01:31 | 31.19807 | 72.41332 | 35767 ft | 465 kts | 304° |
| 2026-04-22 01:32 | 31.23537 | 72.35154 | 35766 ft | 465 kts | 304° |
| 2026-04-22 01:32 | 31.27113 | 72.28866 | 35769 ft | 464 kts | 299° |
| 2026-04-22 01:33 | 31.30262 | 72.22290 | 35765 ft | 463 kts | 298° |
| 2026-04-22 01:33 | 31.33319 | 72.15700 | 35767 ft | 464 kts | 298° |
| 2026-04-22 01:34 | 31.36385 | 72.09055 | 35767 ft | 464 kts | 298° |
| 2026-04-22 01:34 | 31.39449 | 72.02417 | 35767 ft | 464 kts | 298° |
| 2026-04-22 01:35 | 31.42516 | 71.95784 | 35768 ft | 463 kts | 297° |
| 2026-04-22 01:35 | 31.45577 | 71.89141 | 35765 ft | 464 kts | 297° |
| 2026-04-22 01:36 | 31.48640 | 71.82485 | 35765 ft | 464 kts | 297° |
| 2026-04-22 01:36 | 31.51699 | 71.75829 | 35764 ft | 464 kts | 297° |
| 2026-04-22 01:37 | 31.54756 | 71.69164 | 35764 ft | 464 kts | 297° |
| 2026-04-22 01:37 | 31.57812 | 71.62492 | 35765 ft | 464 kts | 297° |
| 2026-04-22 01:38 | 31.60863 | 71.55825 | 35767 ft | 464 kts | 297° |
| 2026-04-22 01:38 | 31.63885 | 71.49186 | 35767 ft | 464 kts | 297° |
| 2026-04-22 01:39 | 31.66927 | 71.42490 | 35767 ft | 465 kts | 297° |
| 2026-04-22 01:39 | 31.69968 | 71.35788 | 35757 ft | 464 kts | 297° |
| 2026-04-22 01:40 | 31.73012 | 71.29070 | 35757 ft | 465 kts | 297° |
| 2026-04-22 01:40 | 31.76053 | 71.22355 | 35760 ft | 466 kts | 297° |
| 2026-04-22 01:41 | 31.79095 | 71.15619 | 35757 ft | 466 kts | 297° |
| 2026-04-22 01:41 | 31.82134 | 71.08877 | 35757 ft | 466 kts | 297° |
| 2026-04-22 01:42 | 31.85152 | 71.02169 | 35766 ft | 467 kts | 297° |
| 2026-04-22 01:42 | 31.88184 | 70.95420 | 35769 ft | 467 kts | 297° |
| 2026-04-22 01:43 | 31.91338 | 70.88733 | 35767 ft | 468 kts | 302° |
| 2026-04-22 01:43 | 31.95184 | 70.82533 | 35771 ft | 470 kts | 306° |
| 2026-04-22 01:44 | 31.99171 | 70.76434 | 35766 ft | 470 kts | 306° |
| 2026-04-22 01:44 | 32.03178 | 70.70358 | 35785 ft | 469 kts | 306° |
| 2026-04-22 01:45 | 32.07174 | 70.64267 | 35784 ft | 468 kts | 306° |
| 2026-04-22 01:45 | 32.11152 | 70.58175 | 35782 ft | 469 kts | 306° |
| 2026-04-22 01:46 | 32.15129 | 70.52075 | 35784 ft | 469 kts | 306° |
| 2026-04-22 01:46 | 32.19078 | 70.46002 | 35783 ft | 469 kts | 306° |
| 2026-04-22 01:47 | 32.23048 | 70.39886 | 35789 ft | 469 kts | 306° |
| 2026-04-22 01:47 | 32.27018 | 70.33762 | 35783 ft | 469 kts | 306° |
| 2026-04-22 01:48 | 32.30990 | 70.27624 | 35784 ft | 469 kts | 306° |
| 2026-04-22 01:48 | 32.34954 | 70.21488 | 35784 ft | 469 kts | 306° |
| 2026-04-22 01:49 | 32.38935 | 70.15358 | 35787 ft | 470 kts | 306° |
| 2026-04-22 01:49 | 32.42994 | 70.09292 | 35788 ft | 470 kts | 307° |
| 2026-04-22 01:50 | 32.47039 | 70.03270 | 35795 ft | 470 kts | 307° |
| 2026-04-22 01:50 | 32.51094 | 69.97199 | 35787 ft | 470 kts | 306° |
| 2026-04-22 01:51 | 32.55146 | 69.91107 | 35794 ft | 471 kts | 306° |
| 2026-04-22 01:51 | 32.59194 | 69.85006 | 35798 ft | 471 kts | 306° |
| 2026-04-22 01:52 | 32.63244 | 69.78899 | 35795 ft | 471 kts | 306° |
| 2026-04-22 01:52 | 32.67292 | 69.72778 | 35794 ft | 471 kts | 306° |
| 2026-04-22 01:53 | 32.71333 | 69.66665 | 35793 ft | 470 kts | 306° |
| 2026-04-22 01:53 | 32.75370 | 69.60538 | 35798 ft | 471 kts | 306° |
| 2026-04-22 01:54 | 32.79380 | 69.54444 | 35791 ft | 470 kts | 306° |
| 2026-04-22 01:54 | 32.83411 | 69.48308 | 35798 ft | 471 kts | 306° |
| 2026-04-22 01:55 | 32.87444 | 69.42164 | 35799 ft | 471 kts | 306° |
| 2026-04-22 01:55 | 32.91457 | 69.36015 | 35795 ft | 470 kts | 306° |
| 2026-04-22 01:56 | 32.95470 | 69.29848 | 35792 ft | 471 kts | 306° |
| 2026-04-22 01:56 | 32.99454 | 69.23724 | 35796 ft | 471 kts | 306° |
| 2026-04-22 01:57 | 33.03464 | 69.17549 | 35795 ft | 470 kts | 306° |
| 2026-04-22 01:57 | 33.07470 | 69.11368 | 35798 ft | 471 kts | 306° |
| 2026-04-22 01:58 | 33.10791 | 69.06233 | 35790 ft | 471 kts | 306° |
| 2026-04-22 01:58 | 33.14789 | 69.00041 | 35797 ft | 471 kts | 306° |
| 2026-04-22 01:59 | 33.18792 | 68.93833 | 35791 ft | 472 kts | 306° |
| 2026-04-22 01:59 | 33.22790 | 68.87623 | 35797 ft | 472 kts | 306° |
| 2026-04-22 02:00 | 33.26789 | 68.81400 | 35797 ft | 472 kts | 306° |
| 2026-04-22 02:00 | 33.30892 | 68.75254 | 35791 ft | 473 kts | 308° |
| 2026-04-22 02:01 | 33.35219 | 68.69325 | 35799 ft | 473 kts | 309° |
| 2026-04-22 02:01 | 33.39556 | 68.63399 | 35796 ft | 473 kts | 309° |
| 2026-04-22 02:02 | 33.43832 | 68.57463 | 35791 ft | 474 kts | 308° |
| 2026-04-22 02:02 | 33.48118 | 68.51458 | 35797 ft | 474 kts | 308° |
| 2026-04-22 02:03 | 33.52408 | 68.45430 | 35794 ft | 475 kts | 308° |
| 2026-04-22 02:03 | 33.56687 | 68.39399 | 35798 ft | 475 kts | 308° |
| 2026-04-22 02:04 | 33.62963 | 68.30171 | 35793 ft | 476 kts | 307° |
| 2026-04-22 02:05 | 33.67132 | 68.24003 | 35810 ft | 476 kts | 307° |
| 2026-04-22 02:05 | 33.71313 | 68.17836 | 35813 ft | 476 kts | 307° |
| 2026-04-22 02:06 | 33.75499 | 68.11675 | 35813 ft | 477 kts | 307° |
| 2026-04-22 02:06 | 33.79690 | 68.05492 | 35812 ft | 477 kts | 307° |
| 2026-04-22 02:07 | 33.83875 | 67.99308 | 35814 ft | 477 kts | 307° |
| 2026-04-22 02:07 | 33.88060 | 67.93112 | 35813 ft | 477 kts | 307° |
| 2026-04-22 02:08 | 33.92236 | 67.86914 | 35813 ft | 477 kts | 307° |
| 2026-04-22 02:08 | 33.96387 | 67.80749 | 35814 ft | 477 kts | 307° |
| 2026-04-22 02:09 | 34.00560 | 67.74529 | 35813 ft | 477 kts | 306° |
| 2026-04-22 02:09 | 34.04692 | 67.68265 | 35812 ft | 477 kts | 306° |
| 2026-04-22 02:10 | 34.08804 | 67.62003 | 35813 ft | 476 kts | 306° |
| 2026-04-22 02:10 | 34.12924 | 67.55739 | 35798 ft | 476 kts | 306° |
| 2026-04-22 02:11 | 34.17046 | 67.49476 | 35799 ft | 476 kts | 306° |
| 2026-04-22 02:11 | 34.21166 | 67.43205 | 35790 ft | 476 kts | 306° |
| 2026-04-22 02:12 | 34.25270 | 67.36937 | 35797 ft | 476 kts | 306° |
| 2026-04-22 02:12 | 34.29377 | 67.30650 | 35792 ft | 476 kts | 306° |
| 2026-04-22 02:13 | 34.33451 | 67.24412 | 35805 ft | 475 kts | 306° |
| 2026-04-22 02:13 | 34.37543 | 67.18141 | 35805 ft | 475 kts | 305° |
| 2026-04-22 02:14 | 34.41635 | 67.11851 | 35809 ft | 474 kts | 305° |
| 2026-04-22 02:14 | 34.45715 | 67.05566 | 35832 ft | 474 kts | 305° |
| 2026-04-22 02:15 | 34.49788 | 66.99282 | 35831 ft | 474 kts | 305° |
| 2026-04-22 02:15 | 34.53860 | 66.92993 | 35835 ft | 474 kts | 305° |
| 2026-04-22 02:16 | 34.57937 | 66.86692 | 35834 ft | 474 kts | 304° |
| 2026-04-22 02:16 | 34.61966 | 66.80427 | 35829 ft | 474 kts | 304° |
| 2026-04-22 02:17 | 34.66019 | 66.74115 | 35831 ft | 474 kts | 304° |
| 2026-04-22 02:17 | 34.70072 | 66.67794 | 35836 ft | 474 kts | 304° |
| 2026-04-22 02:18 | 34.74122 | 66.61474 | 35832 ft | 474 kts | 304° |
| 2026-04-22 02:18 | 34.78175 | 66.55140 | 35833 ft | 474 kts | 304° |
| 2026-04-22 02:19 | 34.82214 | 66.48807 | 35826 ft | 474 kts | 304° |
| 2026-04-22 02:19 | 34.86246 | 66.42472 | 35830 ft | 473 kts | 304° |
| 2026-04-22 02:20 | 34.90276 | 66.36130 | 35835 ft | 473 kts | 304° |
| 2026-04-22 02:20 | 34.94277 | 66.29833 | 35833 ft | 473 kts | 304° |
| 2026-04-22 02:21 | 34.98300 | 66.23480 | 35826 ft | 473 kts | 303° |
| 2026-04-22 02:21 | 35.02295 | 66.17098 | 35823 ft | 473 kts | 303° |
| 2026-04-22 02:22 | 35.06270 | 66.10714 | 35822 ft | 472 kts | 303° |
| 2026-04-22 02:22 | 35.10241 | 66.04330 | 35822 ft | 472 kts | 303° |
| 2026-04-22 02:23 | 35.14210 | 65.97951 | 35824 ft | 470 kts | 303° |
| 2026-04-22 02:23 | 35.18172 | 65.91579 | 35824 ft | 471 kts | 303° |
| 2026-04-22 02:24 | 35.22135 | 65.85183 | 35821 ft | 472 kts | 303° |
| 2026-04-22 02:24 | 35.26072 | 65.78820 | 35821 ft | 472 kts | 302° |
| 2026-04-22 02:25 | 35.30029 | 65.72414 | 35822 ft | 471 kts | 302° |
| 2026-04-22 02:25 | 35.33981 | 65.66008 | 35822 ft | 471 kts | 302° |
| 2026-04-22 02:26 | 35.37927 | 65.59599 | 35825 ft | 471 kts | 302° |
| 2026-04-22 02:26 | 35.41865 | 65.53184 | 35821 ft | 471 kts | 302° |
| 2026-04-22 02:27 | 35.45804 | 65.46760 | 35822 ft | 470 kts | 302° |
| 2026-04-22 02:27 | 35.49730 | 65.40349 | 35824 ft | 470 kts | 302° |
| 2026-04-22 02:28 | 35.53653 | 65.33926 | 35824 ft | 471 kts | 302° |
| 2026-04-22 02:28 | 35.57551 | 65.27527 | 35822 ft | 471 kts | 302° |
| 2026-04-22 02:29 | 35.61477 | 65.21086 | 35821 ft | 471 kts | 302° |
| 2026-04-22 02:29 | 35.65400 | 65.14629 | 35823 ft | 471 kts | 302° |
| 2026-04-22 02:30 | 35.69319 | 65.08164 | 35824 ft | 471 kts | 302° |
| 2026-04-22 02:30 | 35.73230 | 65.01699 | 35822 ft | 471 kts | 302° |
| 2026-04-22 02:31 | 35.77148 | 64.95213 | 35821 ft | 471 kts | 301° |
| 2026-04-22 02:31 | 35.81035 | 64.88766 | 35833 ft | 472 kts | 301° |
| 2026-04-22 02:32 | 35.84950 | 64.82262 | 35830 ft | 472 kts | 301° |
| 2026-04-22 02:32 | 35.88863 | 64.75756 | 35834 ft | 473 kts | 301° |
| 2026-04-22 02:33 | 35.92772 | 64.69236 | 35834 ft | 472 kts | 301° |
| 2026-04-22 02:33 | 35.96679 | 64.62710 | 35828 ft | 472 kts | 301° |
| 2026-04-22 02:34 | 36.00581 | 64.56176 | 35835 ft | 473 kts | 301° |
| 2026-04-22 02:34 | 36.04478 | 64.49638 | 35839 ft | 472 kts | 300° |
| 2026-04-22 02:35 | 36.08367 | 64.43104 | 35840 ft | 472 kts | 300° |
| 2026-04-22 02:35 | 36.12254 | 64.36568 | 35840 ft | 471 kts | 300° |
| 2026-04-22 02:36 | 36.16115 | 64.30063 | 35842 ft | 472 kts | 300° |
| 2026-04-22 02:36 | 36.20061 | 64.23564 | 35845 ft | 473 kts | 301° |
| 2026-04-22 02:37 | 36.24128 | 64.17136 | 35842 ft | 475 kts | 302° |
| 2026-04-22 02:37 | 36.28200 | 64.10693 | 35839 ft | 474 kts | 302° |
| 2026-04-22 02:38 | 36.32247 | 64.04232 | 35845 ft | 474 kts | 302° |
| 2026-04-22 02:38 | 36.36281 | 63.97758 | 35843 ft | 474 kts | 301° |
| 2026-04-22 02:39 | 36.40320 | 63.91263 | 35860 ft | 474 kts | 301° |
| 2026-04-22 02:39 | 36.44349 | 63.84769 | 35862 ft | 474 kts | 301° |
| 2026-04-22 02:40 | 36.48374 | 63.78272 | 35856 ft | 474 kts | 301° |
| 2026-04-22 02:40 | 36.52394 | 63.71768 | 35865 ft | 474 kts | 301° |
| 2026-04-22 02:41 | 36.56394 | 63.65287 | 35857 ft | 474 kts | 301° |
| 2026-04-22 02:41 | 36.60414 | 63.58762 | 35857 ft | 475 kts | 301° |
| 2026-04-22 02:42 | 36.64424 | 63.52240 | 35860 ft | 474 kts | 301° |
| 2026-04-22 02:42 | 36.68438 | 63.45698 | 35860 ft | 475 kts | 301° |
| 2026-04-22 02:43 | 36.72419 | 63.39199 | 35853 ft | 475 kts | 301° |
| 2026-04-22 02:43 | 36.76427 | 63.32643 | 35859 ft | 475 kts | 301° |
| 2026-04-22 02:44 | 36.80435 | 63.26078 | 35855 ft | 475 kts | 300° |
| 2026-04-22 02:44 | 36.84440 | 63.19498 | 35859 ft | 476 kts | 300° |
| 2026-04-22 02:45 | 36.88444 | 63.12907 | 35852 ft | 476 kts | 300° |
| 2026-04-22 02:45 | 36.92444 | 63.06314 | 35869 ft | 476 kts | 300° |
| 2026-04-22 02:46 | 36.95768 | 63.00823 | 35866 ft | 476 kts | 300° |
| 2026-04-22 02:46 | 36.99763 | 62.94215 | 35853 ft | 476 kts | 300° |
| 2026-04-22 02:47 | 37.03755 | 62.87595 | 35868 ft | 476 kts | 300° |
| 2026-04-22 02:47 | 37.07746 | 62.80963 | 35852 ft | 477 kts | 300° |
| 2026-04-22 02:48 | 37.11733 | 62.74330 | 35858 ft | 476 kts | 299° |
| 2026-04-22 02:48 | 37.15713 | 62.67692 | 35852 ft | 476 kts | 299° |
| 2026-04-22 02:49 | 37.19689 | 62.61048 | 35862 ft | 477 kts | 299° |
| 2026-04-22 02:49 | 37.23641 | 62.54427 | 35868 ft | 477 kts | 299° |
| 2026-04-22 02:50 | 37.27621 | 62.47751 | 35862 ft | 477 kts | 299° |
| 2026-04-22 02:50 | 37.31590 | 62.41078 | 35862 ft | 476 kts | 299° |
| 2026-04-22 02:51 | 37.35552 | 62.34403 | 35858 ft | 476 kts | 298° |
| 2026-04-22 02:51 | 37.39510 | 62.27724 | 35857 ft | 476 kts | 298° |
| 2026-04-22 02:52 | 37.43458 | 62.21046 | 35855 ft | 475 kts | 298° |
| 2026-04-22 02:52 | 37.47394 | 62.14377 | 35852 ft | 474 kts | 298° |
| 2026-04-22 02:53 | 37.51322 | 62.07707 | 35857 ft | 474 kts | 298° |
| 2026-04-22 02:53 | 37.55246 | 62.01030 | 35857 ft | 473 kts | 298° |
| 2026-04-22 02:54 | 37.59138 | 61.94395 | 35865 ft | 474 kts | 298° |
| 2026-04-22 02:54 | 37.62766 | 61.87531 | 35857 ft | 465 kts | 290° |
| 2026-04-22 02:55 | 37.65766 | 61.80329 | 35858 ft | 463 kts | 289° |
| 2026-04-22 02:55 | 37.68660 | 61.73069 | 35865 ft | 463 kts | 288° |
| 2026-04-22 02:56 | 37.71537 | 61.65803 | 35859 ft | 462 kts | 288° |
| 2026-04-22 02:56 | 37.74421 | 61.58538 | 35858 ft | 462 kts | 288° |
| 2026-04-22 02:57 | 37.77304 | 61.51278 | 35854 ft | 462 kts | 288° |
| 2026-04-22 02:57 | 37.80181 | 61.44013 | 35853 ft | 462 kts | 288° |
| 2026-04-22 02:58 | 37.83053 | 61.36735 | 35855 ft | 462 kts | 288° |
| 2026-04-22 02:58 | 37.85922 | 61.29450 | 35858 ft | 462 kts | 288° |
| 2026-04-22 02:59 | 37.88773 | 61.22205 | 35862 ft | 462 kts | 288° |
| 2026-04-22 02:59 | 37.91635 | 61.14909 | 35873 ft | 462 kts | 288° |
| 2026-04-22 03:00 | 37.94492 | 61.07608 | 35873 ft | 463 kts | 288° |
| 2026-04-22 03:00 | 37.97349 | 61.00290 | 35865 ft | 462 kts | 288° |
| 2026-04-22 03:01 | 38.00194 | 60.92988 | 35871 ft | 461 kts | 288° |
| 2026-04-22 03:01 | 38.03014 | 60.85731 | 35865 ft | 461 kts | 288° |
| 2026-04-22 03:02 | 38.05840 | 60.78439 | 35870 ft | 460 kts | 288° |
| 2026-04-22 03:02 | 38.08662 | 60.71140 | 35862 ft | 460 kts | 287° |
| 2026-04-22 03:03 | 38.11476 | 60.63847 | 35872 ft | 460 kts | 287° |
| 2026-04-22 03:03 | 38.14286 | 60.56547 | 35867 ft | 460 kts | 287° |
| 2026-04-22 03:04 | 38.17092 | 60.49246 | 35872 ft | 459 kts | 287° |
| 2026-04-22 03:04 | 38.19897 | 60.41930 | 35870 ft | 460 kts | 287° |
| 2026-04-22 03:05 | 38.22676 | 60.34651 | 35870 ft | 460 kts | 287° |
| 2026-04-22 03:05 | 38.25463 | 60.27331 | 35880 ft | 459 kts | 287° |
| 2026-04-22 03:06 | 38.28247 | 60.20007 | 35882 ft | 459 kts | 287° |
| 2026-04-22 03:06 | 38.31025 | 60.12688 | 35881 ft | 459 kts | 287° |
| 2026-04-22 03:07 | 38.33802 | 60.05353 | 35879 ft | 459 kts | 287° |
| 2026-04-22 03:07 | 38.36578 | 59.98000 | 35886 ft | 459 kts | 287° |
| 2026-04-22 03:08 | 38.39327 | 59.90703 | 35888 ft | 459 kts | 287° |
| 2026-04-22 03:08 | 38.42094 | 59.83348 | 35888 ft | 459 kts | 287° |
| 2026-04-22 03:09 | 38.44850 | 59.75994 | 35888 ft | 459 kts | 287° |
| 2026-04-22 03:09 | 38.47604 | 59.68624 | 35888 ft | 459 kts | 287° |
| 2026-04-22 03:10 | 38.50353 | 59.61259 | 35894 ft | 460 kts | 287° |
| 2026-04-22 03:10 | 38.53084 | 59.53924 | 35915 ft | 460 kts | 287° |
| 2026-04-22 03:11 | 38.55829 | 59.46530 | 35915 ft | 460 kts | 287° |
| 2026-04-22 03:11 | 38.58568 | 59.39130 | 35916 ft | 461 kts | 287° |
| 2026-04-22 03:12 | 38.61358 | 59.31728 | 35915 ft | 464 kts | 288° |
| 2026-04-22 03:12 | 38.65801 | 59.20710 | 35916 ft | 465 kts | 289° |
| 2026-04-22 03:13 | 38.68757 | 59.13350 | 35916 ft | 465 kts | 289° |
| 2026-04-22 03:13 | 38.71651 | 59.06063 | 35915 ft | 465 kts | 289° |
| 2026-04-22 03:14 | 38.74588 | 58.98622 | 35915 ft | 465 kts | 289° |
| 2026-04-22 03:14 | 38.77506 | 58.91214 | 35928 ft | 468 kts | 289° |
| 2026-04-22 03:15 | 38.80426 | 58.83776 | 35931 ft | 471 kts | 289° |
| 2026-04-22 03:15 | 38.83377 | 58.76263 | 35934 ft | 471 kts | 289° |
| 2026-04-22 03:16 | 38.86322 | 58.68748 | 35937 ft | 472 kts | 289° |
| 2026-04-22 03:16 | 38.89052 | 58.61123 | 35934 ft | 465 kts | 283° |
| 2026-04-22 03:17 | 38.91271 | 58.53328 | 35935 ft | 464 kts | 282° |
| 2026-04-22 03:17 | 38.93402 | 58.45509 | 35933 ft | 463 kts | 282° |
| 2026-04-22 03:18 | 38.95501 | 58.37736 | 35935 ft | 463 kts | 282° |
| 2026-04-22 03:18 | 38.97619 | 58.29901 | 35942 ft | 463 kts | 282° |
| 2026-04-22 03:19 | 38.99736 | 58.22071 | 35943 ft | 463 kts | 282° |
| 2026-04-22 03:19 | 39.01848 | 58.14240 | 35943 ft | 463 kts | 282° |
| 2026-04-22 03:20 | 39.03956 | 58.06395 | 35943 ft | 464 kts | 282° |
| 2026-04-22 03:20 | 39.06048 | 57.98590 | 35944 ft | 464 kts | 282° |
| 2026-04-22 03:21 | 39.08145 | 57.90741 | 35943 ft | 463 kts | 282° |
| 2026-04-22 03:21 | 39.10237 | 57.82893 | 35943 ft | 463 kts | 281° |
| 2026-04-22 03:22 | 39.12320 | 57.75042 | 35944 ft | 464 kts | 281° |
| 2026-04-22 03:22 | 39.14386 | 57.67222 | 35943 ft | 464 kts | 281° |
| 2026-04-22 03:23 | 39.16463 | 57.59348 | 35943 ft | 464 kts | 281° |
| 2026-04-22 03:23 | 39.18536 | 57.51468 | 35943 ft | 464 kts | 281° |
| 2026-04-22 03:24 | 39.20604 | 57.43579 | 35943 ft | 464 kts | 281° |
| 2026-04-22 03:24 | 39.22655 | 57.35728 | 35943 ft | 464 kts | 281° |
| 2026-04-22 03:25 | 39.24714 | 57.27822 | 35941 ft | 464 kts | 281° |
| 2026-04-22 03:25 | 39.26768 | 57.19915 | 35934 ft | 464 kts | 281° |
| 2026-04-22 03:26 | 39.28813 | 57.12001 | 35934 ft | 465 kts | 281° |
| 2026-04-22 03:26 | 39.30859 | 57.04072 | 35934 ft | 465 kts | 281° |
| 2026-04-22 03:27 | 39.32890 | 56.96179 | 35952 ft | 465 kts | 281° |
| 2026-04-22 03:27 | 39.34926 | 56.88237 | 35952 ft | 465 kts | 281° |
| 2026-04-22 03:28 | 39.36958 | 56.80293 | 35953 ft | 466 kts | 281° |
| 2026-04-22 03:28 | 39.38878 | 56.72294 | 35953 ft | 464 kts | 279° |
| 2026-04-22 03:29 | 39.40668 | 56.64330 | 35953 ft | 464 kts | 279° |
| 2026-04-22 03:29 | 39.42479 | 56.56299 | 35953 ft | 465 kts | 279° |
| 2026-04-22 03:30 | 39.44307 | 56.48265 | 35953 ft | 465 kts | 279° |
| 2026-04-22 03:30 | 39.46140 | 56.40232 | 35952 ft | 465 kts | 279° |
| 2026-04-22 03:31 | 39.47960 | 56.32243 | 35953 ft | 465 kts | 279° |
| 2026-04-22 03:31 | 39.49778 | 56.24207 | 35954 ft | 466 kts | 279° |
| 2026-04-22 03:32 | 39.51594 | 56.16143 | 35952 ft | 466 kts | 279° |
| 2026-04-22 03:32 | 39.53413 | 56.08062 | 35951 ft | 467 kts | 279° |
| 2026-04-22 03:33 | 39.55223 | 55.99983 | 35953 ft | 466 kts | 279° |
| 2026-04-22 03:33 | 39.57026 | 55.91907 | 35953 ft | 467 kts | 279° |
| 2026-04-22 03:34 | 39.58528 | 55.85187 | 35953 ft | 467 kts | 279° |
| 2026-04-22 03:34 | 39.60634 | 55.75789 | 35952 ft | 467 kts | 279° |
| 2026-04-22 03:35 | 39.62139 | 55.69054 | 35952 ft | 467 kts | 279° |
| 2026-04-22 03:35 | 39.63941 | 55.60953 | 35952 ft | 467 kts | 279° |
| 2026-04-22 03:36 | 39.65739 | 55.52848 | 35953 ft | 467 kts | 279° |
| 2026-04-22 03:36 | 39.67530 | 55.44740 | 35953 ft | 467 kts | 279° |
| 2026-04-22 03:37 | 39.69312 | 55.36634 | 35961 ft | 467 kts | 279° |
| 2026-04-22 03:37 | 39.71080 | 55.28571 | 35962 ft | 467 kts | 279° |
| 2026-04-22 03:38 | 39.72843 | 55.20448 | 35962 ft | 466 kts | 279° |
| 2026-04-22 03:38 | 39.74599 | 55.12325 | 35962 ft | 467 kts | 279° |
| 2026-04-22 03:39 | 39.76351 | 55.04201 | 35962 ft | 467 kts | 279° |
| 2026-04-22 03:39 | 39.78102 | 54.96070 | 35961 ft | 467 kts | 279° |
| 2026-04-22 03:40 | 39.79850 | 54.87910 | 35962 ft | 467 kts | 279° |
| 2026-04-22 03:40 | 39.81591 | 54.79762 | 35961 ft | 468 kts | 279° |
| 2026-04-22 03:41 | 39.83335 | 54.71604 | 35962 ft | 468 kts | 279° |
| 2026-04-22 03:41 | 39.85076 | 54.63439 | 35962 ft | 468 kts | 279° |
| 2026-04-22 03:42 | 39.86806 | 54.55279 | 35962 ft | 468 kts | 279° |
| 2026-04-22 03:42 | 39.88538 | 54.47108 | 35962 ft | 468 kts | 279° |
| 2026-04-22 03:43 | 39.90256 | 54.38982 | 35962 ft | 468 kts | 279° |
| 2026-04-22 03:43 | 39.91960 | 54.30799 | 35962 ft | 468 kts | 279° |
| 2026-04-22 03:44 | 39.93661 | 54.22594 | 35963 ft | 468 kts | 279° |
| 2026-04-22 03:44 | 39.95358 | 54.14388 | 35962 ft | 469 kts | 279° |
| 2026-04-22 03:45 | 39.97053 | 54.06171 | 35961 ft | 469 kts | 279° |
| 2026-04-22 03:45 | 39.98744 | 53.97946 | 35962 ft | 469 kts | 279° |
| 2026-04-22 03:46 | 40.00417 | 53.89778 | 35961 ft | 469 kts | 279° |
| 2026-04-22 03:46 | 40.02090 | 53.81560 | 35963 ft | 469 kts | 279° |
| 2026-04-22 03:47 | 40.03758 | 53.73336 | 35962 ft | 469 kts | 279° |
| 2026-04-22 03:47 | 40.05422 | 53.65107 | 35961 ft | 469 kts | 279° |
| 2026-04-22 03:48 | 40.07071 | 53.56922 | 35962 ft | 469 kts | 279° |
| 2026-04-22 03:48 | 40.08725 | 53.48674 | 35961 ft | 469 kts | 279° |
| 2026-04-22 03:49 | 40.10368 | 53.40441 | 35962 ft | 468 kts | 279° |
| 2026-04-22 03:49 | 40.12011 | 53.32192 | 35961 ft | 469 kts | 279° |
| 2026-04-22 03:50 | 40.13646 | 53.23942 | 35963 ft | 469 kts | 279° |
| 2026-04-22 03:50 | 40.15275 | 53.15698 | 35962 ft | 468 kts | 279° |
| 2026-04-22 03:51 | 40.16885 | 53.07494 | 35961 ft | 469 kts | 279° |
| 2026-04-22 03:51 | 40.18502 | 52.99238 | 35962 ft | 468 kts | 279° |
| 2026-04-22 03:52 | 40.20112 | 52.90985 | 35961 ft | 468 kts | 279° |
| 2026-04-22 03:52 | 40.21714 | 52.82738 | 35961 ft | 468 kts | 279° |
| 2026-04-22 03:53 | 40.23312 | 52.74479 | 35962 ft | 468 kts | 279° |
| 2026-04-22 03:53 | 40.24892 | 52.66277 | 35962 ft | 467 kts | 279° |
| 2026-04-22 03:54 | 40.26475 | 52.58015 | 35962 ft | 467 kts | 279° |
| 2026-04-22 03:54 | 40.28057 | 52.49762 | 35961 ft | 467 kts | 279° |
| 2026-04-22 03:55 | 40.29632 | 52.41500 | 35962 ft | 467 kts | 279° |
| 2026-04-22 03:55 | 40.31203 | 52.33238 | 35962 ft | 467 kts | 279° |
| 2026-04-22 03:56 | 40.32767 | 52.24972 | 35962 ft | 467 kts | 279° |
| 2026-04-22 03:56 | 40.34314 | 52.16760 | 35962 ft | 467 kts | 279° |
| 2026-04-22 03:57 | 40.35866 | 52.08501 | 35971 ft | 466 kts | 279° |
| 2026-04-22 03:57 | 40.37410 | 52.00233 | 35971 ft | 467 kts | 279° |
| 2026-04-22 03:58 | 40.38946 | 51.91968 | 35971 ft | 467 kts | 279° |
| 2026-04-22 03:58 | 40.40480 | 51.83682 | 35971 ft | 467 kts | 279° |
| 2026-04-22 03:59 | 40.42006 | 51.75407 | 35971 ft | 466 kts | 279° |
| 2026-04-22 03:59 | 40.43527 | 51.67125 | 35971 ft | 466 kts | 279° |
| 2026-04-22 04:00 | 40.45043 | 51.58837 | 35971 ft | 467 kts | 279° |
| 2026-04-22 04:00 | 40.46544 | 51.50597 | 35970 ft | 467 kts | 279° |
| 2026-04-22 04:01 | 40.48142 | 51.42325 | 35962 ft | 467 kts | 281° |
| 2026-04-22 04:01 | 40.49856 | 51.34088 | 35962 ft | 468 kts | 281° |
| 2026-04-22 04:02 | 40.51566 | 51.25822 | 35962 ft | 468 kts | 281° |
| 2026-04-22 04:02 | 40.53247 | 51.17550 | 35961 ft | 468 kts | 281° |
| 2026-04-22 04:03 | 40.54913 | 51.09274 | 35962 ft | 468 kts | 281° |
| 2026-04-22 04:03 | 40.56574 | 51.00992 | 35962 ft | 468 kts | 281° |
| 2026-04-22 04:04 | 40.58225 | 50.92716 | 35962 ft | 468 kts | 281° |
| 2026-04-22 04:04 | 40.59862 | 50.84473 | 35962 ft | 468 kts | 281° |
| 2026-04-22 04:05 | 40.61504 | 50.76175 | 35962 ft | 468 kts | 281° |
| 2026-04-22 04:05 | 40.63139 | 50.67883 | 35962 ft | 468 kts | 281° |
| 2026-04-22 04:06 | 40.64768 | 50.59583 | 35962 ft | 468 kts | 281° |
| 2026-04-22 04:06 | 40.66393 | 50.51271 | 35962 ft | 468 kts | 281° |
| 2026-04-22 04:07 | 40.68010 | 50.42968 | 35962 ft | 468 kts | 281° |
| 2026-04-22 04:07 | 40.69618 | 50.34660 | 35962 ft | 468 kts | 281° |
| 2026-04-22 04:08 | 40.71222 | 50.26344 | 35962 ft | 468 kts | 281° |
| 2026-04-22 04:08 | 40.72806 | 50.18077 | 35962 ft | 468 kts | 281° |
| 2026-04-22 04:09 | 40.74397 | 50.09752 | 35962 ft | 468 kts | 281° |
| 2026-04-22 04:09 | 40.75982 | 50.01417 | 35968 ft | 468 kts | 281° |
| 2026-04-22 04:10 | 40.77561 | 49.93079 | 35971 ft | 468 kts | 282° |
| 2026-04-22 04:10 | 40.79135 | 49.84741 | 35971 ft | 468 kts | 281° |
| 2026-04-22 04:11 | 40.80699 | 49.76411 | 35971 ft | 467 kts | 281° |
| 2026-04-22 04:11 | 40.82260 | 49.68066 | 35971 ft | 468 kts | 281° |
| 2026-04-22 04:12 | 40.83807 | 49.59766 | 35971 ft | 469 kts | 281° |
| 2026-04-22 04:12 | 40.85356 | 49.51403 | 35962 ft | 468 kts | 281° |
| 2026-04-22 04:13 | 40.86898 | 49.43053 | 35962 ft | 468 kts | 281° |
| 2026-04-22 04:13 | 40.88434 | 49.34700 | 35962 ft | 468 kts | 281° |
| 2026-04-22 04:14 | 40.89910 | 49.26323 | 35962 ft | 467 kts | 281° |
| 2026-04-22 04:14 | 40.91314 | 49.17924 | 35961 ft | 467 kts | 281° |
| 2026-04-22 04:15 | 40.92718 | 49.09519 | 35960 ft | 467 kts | 281° |
| 2026-04-22 04:15 | 40.94115 | 49.01187 | 35962 ft | 467 kts | 281° |
| 2026-04-22 04:16 | 40.96225 | 48.88576 | 35960 ft | 467 kts | 281° |
| 2026-04-22 04:17 | 40.97625 | 48.80172 | 35962 ft | 468 kts | 281° |
| 2026-04-22 04:17 | 40.99018 | 48.71752 | 35962 ft | 467 kts | 281° |
| 2026-04-22 04:18 | 41.00401 | 48.63345 | 35967 ft | 467 kts | 281° |
| 2026-04-22 04:18 | 41.01779 | 48.54924 | 35981 ft | 467 kts | 281° |
| 2026-04-22 04:19 | 41.03143 | 48.46559 | 35981 ft | 467 kts | 281° |
| 2026-04-22 04:19 | 41.04510 | 48.38133 | 35975 ft | 467 kts | 281° |
| 2026-04-22 04:20 | 41.05870 | 48.29711 | 35974 ft | 467 kts | 281° |
| 2026-04-22 04:20 | 41.07222 | 48.21292 | 35973 ft | 468 kts | 281° |
| 2026-04-22 04:21 | 41.08571 | 48.12856 | 35971 ft | 467 kts | 281° |
| 2026-04-22 04:21 | 41.09911 | 48.04420 | 35973 ft | 467 kts | 281° |
| 2026-04-22 04:22 | 41.11246 | 47.95982 | 35971 ft | 467 kts | 281° |
| 2026-04-22 04:22 | 41.12572 | 47.87560 | 35971 ft | 466 kts | 281° |
| 2026-04-22 04:23 | 41.13894 | 47.79145 | 35973 ft | 466 kts | 281° |
| 2026-04-22 04:23 | 41.15198 | 47.70782 | 35969 ft | 466 kts | 281° |
| 2026-04-22 04:24 | 41.16505 | 47.62354 | 35977 ft | 466 kts | 281° |
| 2026-04-22 04:24 | 41.17587 | 47.55337 | 35982 ft | 466 kts | 281° |
| 2026-04-22 04:25 | 41.19103 | 47.45481 | 35984 ft | 466 kts | 280° |
| 2026-04-22 04:25 | 41.20173 | 47.38475 | 35994 ft | 466 kts | 281° |
| 2026-04-22 04:26 | 41.21457 | 47.30031 | 35988 ft | 466 kts | 280° |
| 2026-04-22 04:26 | 41.22735 | 47.21594 | 36003 ft | 466 kts | 280° |
| 2026-04-22 04:27 | 41.24007 | 47.13154 | 36009 ft | 466 kts | 280° |
| 2026-04-22 04:27 | 41.25265 | 47.04764 | 36015 ft | 466 kts | 280° |
| 2026-04-22 04:28 | 41.26525 | 46.96327 | 36018 ft | 465 kts | 280° |
| 2026-04-22 04:28 | 41.27776 | 46.87888 | 36023 ft | 464 kts | 280° |
| 2026-04-22 04:29 | 41.29019 | 46.79462 | 36027 ft | 464 kts | 280° |
| 2026-04-22 04:29 | 41.30250 | 46.71029 | 36027 ft | 464 kts | 279° |
| 2026-04-22 04:30 | 41.31434 | 46.62597 | 36026 ft | 464 kts | 279° |
| 2026-04-22 04:30 | 41.32602 | 46.54164 | 36035 ft | 463 kts | 279° |
| 2026-04-22 04:31 | 41.33763 | 46.45785 | 36026 ft | 463 kts | 279° |
| 2026-04-22 04:31 | 41.34929 | 46.37343 | 36027 ft | 463 kts | 279° |
| 2026-04-22 04:32 | 41.36090 | 46.28909 | 36026 ft | 463 kts | 279° |
| 2026-04-22 04:32 | 41.37240 | 46.20479 | 36025 ft | 463 kts | 279° |
| 2026-04-22 04:33 | 41.38386 | 46.12043 | 36018 ft | 462 kts | 279° |
| 2026-04-22 04:33 | 41.39525 | 46.03614 | 36018 ft | 462 kts | 279° |
| 2026-04-22 04:34 | 41.40651 | 45.95238 | 36018 ft | 462 kts | 279° |
| 2026-04-22 04:34 | 41.41785 | 45.86753 | 36010 ft | 462 kts | 279° |
| 2026-04-22 04:35 | 41.42896 | 45.78383 | 36008 ft | 462 kts | 279° |
| 2026-04-22 04:35 | 41.44008 | 45.69960 | 36011 ft | 462 kts | 278° |
| 2026-04-22 04:36 | 41.45116 | 45.61525 | 36005 ft | 462 kts | 278° |
| 2026-04-22 04:36 | 41.46220 | 45.53074 | 36002 ft | 462 kts | 278° |
| 2026-04-22 04:37 | 41.47315 | 45.44626 | 35996 ft | 462 kts | 278° |
| 2026-04-22 04:37 | 41.48403 | 45.36182 | 35998 ft | 462 kts | 278° |
| 2026-04-22 04:38 | 41.49243 | 45.27695 | 35995 ft | 461 kts | 275° |
| 2026-04-22 04:38 | 41.49852 | 45.19170 | 35996 ft | 462 kts | 274° |
| 2026-04-22 04:39 | 41.50482 | 45.10646 | 35996 ft | 462 kts | 275° |
| 2026-04-22 04:39 | 41.51150 | 45.02136 | 36001 ft | 461 kts | 275° |
| 2026-04-22 04:40 | 41.51833 | 44.93626 | 36000 ft | 461 kts | 275° |
| 2026-04-22 04:40 | 41.52501 | 44.85162 | 35995 ft | 461 kts | 275° |
| 2026-04-22 04:41 | 41.53166 | 44.76648 | 35990 ft | 462 kts | 275° |
| 2026-04-22 04:41 | 41.53829 | 44.68117 | 35997 ft | 462 kts | 275° |
| 2026-04-22 04:42 | 41.54482 | 44.59592 | 36001 ft | 462 kts | 275° |
| 2026-04-22 04:42 | 41.55127 | 44.51063 | 35997 ft | 461 kts | 275° |
| 2026-04-22 04:43 | 41.55767 | 44.42540 | 36006 ft | 461 kts | 275° |
| 2026-04-22 04:43 | 41.56398 | 44.34070 | 36004 ft | 461 kts | 275° |
| 2026-04-22 04:44 | 41.57026 | 44.25531 | 36019 ft | 461 kts | 275° |
| 2026-04-22 04:44 | 41.57663 | 44.17014 | 36018 ft | 461 kts | 275° |
| 2026-04-22 04:45 | 41.58336 | 44.08506 | 36028 ft | 461 kts | 275° |
| 2026-04-22 04:45 | 41.59007 | 43.99978 | 36027 ft | 461 kts | 275° |
| 2026-04-22 04:46 | 41.59663 | 43.91465 | 36027 ft | 461 kts | 275° |
| 2026-04-22 04:46 | 41.60307 | 43.83003 | 36034 ft | 461 kts | 275° |
| 2026-04-22 04:47 | 41.60948 | 43.74477 | 36035 ft | 461 kts | 275° |
| 2026-04-22 04:47 | 41.61583 | 43.65951 | 36036 ft | 461 kts | 275° |
| 2026-04-22 04:48 | 41.62212 | 43.57416 | 36037 ft | 461 kts | 275° |
| 2026-04-22 04:48 | 41.62833 | 43.48893 | 36034 ft | 460 kts | 275° |
| 2026-04-22 04:49 | 41.63455 | 43.40386 | 36035 ft | 460 kts | 275° |
| 2026-04-22 04:49 | 41.64062 | 43.31927 | 36035 ft | 460 kts | 275° |
| 2026-04-22 04:50 | 41.64667 | 43.23421 | 36034 ft | 460 kts | 275° |
| 2026-04-22 04:50 | 41.65266 | 43.14915 | 36033 ft | 459 kts | 275° |
| 2026-04-22 04:51 | 41.65858 | 43.06425 | 35995 ft | 458 kts | 275° |
| 2026-04-22 04:51 | 41.66442 | 42.97943 | 35979 ft | 458 kts | 275° |
| 2026-04-22 04:52 | 41.67019 | 42.89461 | 35971 ft | 457 kts | 275° |
| 2026-04-22 04:52 | 41.67597 | 42.80994 | 35969 ft | 457 kts | 275° |
| 2026-04-22 04:53 | 41.68154 | 42.72590 | 35965 ft | 456 kts | 275° |
| 2026-04-22 04:53 | 41.68705 | 42.64142 | 35961 ft | 455 kts | 275° |
| 2026-04-22 04:54 | 41.69251 | 42.55710 | 35961 ft | 455 kts | 274° |
| 2026-04-22 04:54 | 41.69790 | 42.47275 | 35962 ft | 454 kts | 274° |
| 2026-04-22 04:55 | 41.70326 | 42.38851 | 35953 ft | 454 kts | 274° |
| 2026-04-22 04:55 | 41.70856 | 42.30448 | 35944 ft | 453 kts | 274° |
| 2026-04-22 04:56 | 41.71377 | 42.22051 | 35943 ft | 453 kts | 274° |
| 2026-04-22 04:56 | 41.71890 | 42.13659 | 35945 ft | 453 kts | 274° |
| 2026-04-22 04:57 | 41.72399 | 42.05298 | 35943 ft | 453 kts | 274° |
| 2026-04-22 04:57 | 41.72902 | 41.96883 | 35943 ft | 453 kts | 274° |
| 2026-04-22 04:58 | 41.73393 | 41.88489 | 35943 ft | 452 kts | 274° |
| 2026-04-22 04:58 | 41.73879 | 41.80100 | 35942 ft | 451 kts | 274° |
| 2026-04-22 04:59 | 41.74361 | 41.71707 | 35942 ft | 452 kts | 274° |
| 2026-04-22 04:59 | 41.74834 | 41.63330 | 35943 ft | 451 kts | 274° |
| 2026-04-22 05:00 | 41.75302 | 41.54987 | 35936 ft | 452 kts | 274° |
| 2026-04-22 05:00 | 41.75765 | 41.46580 | 35934 ft | 452 kts | 274° |
| 2026-04-22 05:01 | 41.76223 | 41.38195 | 35943 ft | 452 kts | 274° |
| 2026-04-22 05:01 | 41.76678 | 41.29776 | 35944 ft | 452 kts | 274° |
| 2026-04-22 05:02 | 41.77124 | 41.21373 | 35943 ft | 452 kts | 274° |
| 2026-04-22 05:02 | 41.77559 | 41.13040 | 35944 ft | 451 kts | 274° |
| 2026-04-22 05:03 | 41.77993 | 41.04644 | 35943 ft | 452 kts | 274° |
| 2026-04-22 05:03 | 41.78419 | 40.96237 | 35943 ft | 451 kts | 273° |
| 2026-04-22 05:04 | 41.78839 | 40.87851 | 35944 ft | 451 kts | 273° |
| 2026-04-22 05:04 | 41.79253 | 40.79469 | 35944 ft | 451 kts | 273° |
| 2026-04-22 05:05 | 41.79663 | 40.71086 | 35943 ft | 450 kts | 273° |
| 2026-04-22 05:05 | 41.80079 | 40.62703 | 35944 ft | 450 kts | 274° |
| 2026-04-22 05:06 | 41.80730 | 40.54371 | 35944 ft | 450 kts | 276° |
| 2026-04-22 05:06 | 41.81459 | 40.46046 | 35943 ft | 449 kts | 275° |
| 2026-04-22 05:07 | 41.82148 | 40.37727 | 35944 ft | 449 kts | 275° |
| 2026-04-22 05:07 | 41.82802 | 40.29399 | 35943 ft | 449 kts | 275° |
| 2026-04-22 05:08 | 41.83444 | 40.21069 | 35943 ft | 449 kts | 275° |
| 2026-04-22 05:08 | 41.84076 | 40.12799 | 35944 ft | 448 kts | 275° |
| 2026-04-22 05:09 | 41.84707 | 40.04493 | 35943 ft | 448 kts | 275° |
| 2026-04-22 05:09 | 41.85331 | 39.96177 | 35943 ft | 448 kts | 275° |
| 2026-04-22 05:10 | 41.85952 | 39.87866 | 35943 ft | 448 kts | 275° |
| 2026-04-22 05:10 | 41.86463 | 39.80939 | 35943 ft | 448 kts | 275° |
| 2026-04-22 05:11 | 41.87172 | 39.71224 | 35944 ft | 448 kts | 275° |
| 2026-04-22 05:11 | 41.87769 | 39.62961 | 35961 ft | 448 kts | 275° |
| 2026-04-22 05:12 | 41.88366 | 39.54625 | 35962 ft | 448 kts | 274° |
| 2026-04-22 05:12 | 41.88953 | 39.46314 | 35961 ft | 448 kts | 274° |
| 2026-04-22 05:13 | 41.89439 | 39.39375 | 35962 ft | 448 kts | 274° |
| 2026-04-22 05:13 | 41.90018 | 39.31041 | 35962 ft | 448 kts | 274° |
| 2026-04-22 05:14 | 41.90583 | 39.22790 | 35971 ft | 447 kts | 274° |
| 2026-04-22 05:14 | 41.91152 | 39.14421 | 35962 ft | 447 kts | 274° |
| 2026-04-22 05:15 | 41.91707 | 39.06182 | 35971 ft | 446 kts | 274° |
| 2026-04-22 05:15 | 41.92259 | 38.97883 | 35971 ft | 446 kts | 274° |
| 2026-04-22 05:16 | 41.92804 | 38.89591 | 35971 ft | 445 kts | 274° |
| 2026-04-22 05:16 | 41.93342 | 38.81318 | 35971 ft | 445 kts | 274° |
| 2026-04-22 05:17 | 41.93873 | 38.73051 | 35974 ft | 444 kts | 274° |
| 2026-04-22 05:17 | 41.94399 | 38.64786 | 35981 ft | 444 kts | 274° |
| 2026-04-22 05:18 | 41.95176 | 38.52405 | 35980 ft | 442 kts | 274° |
| 2026-04-22 05:18 | 41.95685 | 38.44171 | 35980 ft | 442 kts | 274° |
| 2026-04-22 05:19 | 41.96183 | 38.35986 | 35981 ft | 442 kts | 274° |
| 2026-04-22 05:19 | 41.96680 | 38.27755 | 35981 ft | 441 kts | 274° |
| 2026-04-22 05:20 | 41.97169 | 38.19542 | 35991 ft | 441 kts | 274° |
| 2026-04-22 05:20 | 41.97654 | 38.11334 | 35986 ft | 441 kts | 274° |
| 2026-04-22 05:21 | 41.98133 | 38.03116 | 36001 ft | 441 kts | 274° |
| 2026-04-22 05:21 | 41.98605 | 37.94880 | 36010 ft | 441 kts | 274° |
| 2026-04-22 05:22 | 41.99067 | 37.86710 | 36007 ft | 441 kts | 274° |
| 2026-04-22 05:22 | 41.99530 | 37.78492 | 36006 ft | 441 kts | 273° |
| 2026-04-22 05:23 | 41.99983 | 37.70268 | 36006 ft | 441 kts | 273° |
| 2026-04-22 05:23 | 42.00430 | 37.62040 | 36007 ft | 441 kts | 273° |
| 2026-04-22 05:24 | 42.00872 | 37.53836 | 36016 ft | 440 kts | 273° |
| 2026-04-22 05:24 | 42.01308 | 37.45628 | 36018 ft | 439 kts | 273° |
| 2026-04-22 05:25 | 42.01737 | 37.37456 | 36017 ft | 438 kts | 273° |
| 2026-04-22 05:25 | 42.02159 | 37.29271 | 36018 ft | 438 kts | 273° |
| 2026-04-22 05:26 | 42.02577 | 37.21104 | 36017 ft | 437 kts | 273° |
| 2026-04-22 05:26 | 42.02983 | 37.13005 | 36018 ft | 436 kts | 273° |
| 2026-04-22 05:27 | 42.03385 | 37.04849 | 36018 ft | 436 kts | 273° |
| 2026-04-22 05:27 | 42.03778 | 36.96721 | 36017 ft | 435 kts | 273° |
| 2026-04-22 05:28 | 42.04170 | 36.88600 | 36018 ft | 435 kts | 273° |
| 2026-04-22 05:28 | 42.04556 | 36.80507 | 36017 ft | 434 kts | 272° |
| 2026-04-22 05:29 | 42.04935 | 36.72403 | 36018 ft | 434 kts | 273° |
| 2026-04-22 05:29 | 42.05308 | 36.64279 | 36017 ft | 433 kts | 272° |
| 2026-04-22 05:30 | 42.05675 | 36.56186 | 36018 ft | 432 kts | 272° |
| 2026-04-22 05:30 | 42.06034 | 36.48122 | 36017 ft | 432 kts | 272° |
| 2026-04-22 05:31 | 42.06389 | 36.40040 | 36016 ft | 432 kts | 272° |
| 2026-04-22 05:31 | 42.06735 | 36.32012 | 36017 ft | 432 kts | 272° |
| 2026-04-22 05:32 | 42.07077 | 36.23928 | 36017 ft | 432 kts | 272° |
| 2026-04-22 05:32 | 42.07415 | 36.15849 | 36018 ft | 432 kts | 272° |
| 2026-04-22 05:33 | 42.07748 | 36.07777 | 36018 ft | 431 kts | 272° |
| 2026-04-22 05:33 | 42.08069 | 35.99747 | 36018 ft | 432 kts | 272° |
| 2026-04-22 05:34 | 42.08387 | 35.91691 | 36018 ft | 431 kts | 272° |
| 2026-04-22 05:34 | 42.08703 | 35.83612 | 36017 ft | 432 kts | 272° |
| 2026-04-22 05:35 | 42.09014 | 35.75533 | 36016 ft | 431 kts | 272° |
| 2026-04-22 05:35 | 42.09317 | 35.67455 | 36018 ft | 432 kts | 272° |
| 2026-04-22 05:36 | 42.09612 | 35.59432 | 36018 ft | 432 kts | 272° |
| 2026-04-22 05:36 | 42.09903 | 35.51342 | 36017 ft | 432 kts | 272° |
| 2026-04-22 05:37 | 42.10187 | 35.43306 | 36018 ft | 432 kts | 272° |
| 2026-04-22 05:37 | 42.10468 | 35.35226 | 36018 ft | 432 kts | 272° |
| 2026-04-22 05:38 | 42.10745 | 35.27140 | 36018 ft | 432 kts | 272° |
| 2026-04-22 05:38 | 42.11014 | 35.19069 | 36018 ft | 431 kts | 272° |
| 2026-04-22 05:39 | 42.11276 | 35.11002 | 36018 ft | 431 kts | 272° |
| 2026-04-22 05:39 | 42.11534 | 35.02938 | 36017 ft | 431 kts | 272° |
| 2026-04-22 05:40 | 42.11785 | 34.94869 | 36017 ft | 431 kts | 272° |
| 2026-04-22 05:40 | 42.12028 | 34.86857 | 36017 ft | 431 kts | 272° |
| 2026-04-22 05:41 | 42.12269 | 34.78782 | 36018 ft | 432 kts | 272° |
| 2026-04-22 05:41 | 42.12506 | 34.70703 | 36017 ft | 431 kts | 272° |
| 2026-04-22 05:42 | 42.12736 | 34.62617 | 36015 ft | 432 kts | 272° |
| 2026-04-22 05:42 | 42.12958 | 34.54530 | 36009 ft | 432 kts | 272° |
| 2026-04-22 05:43 | 42.13176 | 34.46441 | 36008 ft | 432 kts | 272° |
| 2026-04-22 05:43 | 42.13389 | 34.38343 | 35997 ft | 433 kts | 272° |
| 2026-04-22 05:44 | 42.13595 | 34.30288 | 36002 ft | 432 kts | 272° |
| 2026-04-22 05:44 | 42.13795 | 34.22195 | 35992 ft | 432 kts | 272° |
| 2026-04-22 05:45 | 42.13992 | 34.14090 | 35993 ft | 432 kts | 272° |
| 2026-04-22 05:45 | 42.14182 | 34.05987 | 35984 ft | 433 kts | 272° |
| 2026-04-22 05:46 | 42.14368 | 33.97860 | 35980 ft | 433 kts | 271° |
| 2026-04-22 05:46 | 42.14546 | 33.89744 | 35980 ft | 433 kts | 271° |
| 2026-04-22 05:47 | 42.14720 | 33.81618 | 35972 ft | 433 kts | 271° |
| 2026-04-22 05:47 | 42.14885 | 33.73551 | 35965 ft | 433 kts | 271° |
| 2026-04-22 05:48 | 42.15049 | 33.65448 | 35944 ft | 432 kts | 271° |
| 2026-04-22 05:48 | 42.15205 | 33.57345 | 35943 ft | 432 kts | 271° |
| 2026-04-22 05:49 | 42.15353 | 33.49232 | 35943 ft | 432 kts | 271° |
| 2026-04-22 05:49 | 42.15497 | 33.41126 | 35943 ft | 432 kts | 271° |
| 2026-04-22 05:50 | 42.15635 | 33.33080 | 35950 ft | 432 kts | 271° |
| 2026-04-22 05:50 | 42.15767 | 33.24984 | 35953 ft | 432 kts | 271° |
| 2026-04-22 05:51 | 42.15894 | 33.16891 | 35953 ft | 432 kts | 271° |
| 2026-04-22 05:51 | 42.16013 | 33.08800 | 35953 ft | 432 kts | 271° |
| 2026-04-22 05:52 | 42.16129 | 33.00728 | 35953 ft | 430 kts | 271° |
| 2026-04-22 05:52 | 42.16240 | 32.92696 | 35953 ft | 431 kts | 271° |
| 2026-04-22 05:53 | 42.16346 | 32.84579 | 35961 ft | 431 kts | 271° |
| 2026-04-22 05:53 | 42.16444 | 32.76559 | 35963 ft | 430 kts | 271° |
| 2026-04-22 05:54 | 42.16536 | 32.68485 | 35962 ft | 431 kts | 271° |
| 2026-04-22 05:54 | 42.16940 | 32.60428 | 35962 ft | 432 kts | 279° |
| 2026-04-22 05:55 | 42.18313 | 32.52544 | 35961 ft | 432 kts | 283° |
| 2026-04-22 05:55 | 42.19876 | 32.44701 | 35971 ft | 433 kts | 283° |
| 2026-04-22 05:56 | 42.21455 | 32.36915 | 35971 ft | 433 kts | 283° |
| 2026-04-22 05:56 | 42.23023 | 32.29072 | 35971 ft | 432 kts | 283° |
| 2026-04-22 05:57 | 42.24571 | 32.21234 | 35971 ft | 432 kts | 283° |
| 2026-04-22 05:57 | 42.26111 | 32.13389 | 35980 ft | 432 kts | 283° |
| 2026-04-22 05:58 | 42.27647 | 32.05536 | 35980 ft | 432 kts | 283° |
| 2026-04-22 05:58 | 42.29167 | 31.97738 | 35980 ft | 432 kts | 283° |
| 2026-04-22 05:59 | 42.30695 | 31.89877 | 36004 ft | 432 kts | 283° |
| 2026-04-22 05:59 | 42.32214 | 31.82028 | 36006 ft | 432 kts | 283° |
| 2026-04-22 06:00 | 42.33729 | 31.74165 | 36012 ft | 432 kts | 283° |
| 2026-04-22 06:00 | 42.34985 | 31.67620 | 36016 ft | 432 kts | 283° |
| 2026-04-22 06:01 | 42.36491 | 31.59746 | 36026 ft | 432 kts | 283° |
| 2026-04-22 06:01 | 42.38236 | 31.50582 | 36027 ft | 432 kts | 283° |
| 2026-04-22 06:02 | 42.39478 | 31.44030 | 36027 ft | 432 kts | 283° |
| 2026-04-22 06:02 | 42.40968 | 31.36135 | 36028 ft | 433 kts | 283° |
| 2026-04-22 06:03 | 42.42453 | 31.28239 | 36026 ft | 432 kts | 283° |
| 2026-04-22 06:03 | 42.43922 | 31.20394 | 36026 ft | 432 kts | 283° |
| 2026-04-22 06:04 | 42.45399 | 31.12497 | 36027 ft | 432 kts | 283° |
| 2026-04-22 06:04 | 42.46865 | 31.04613 | 36026 ft | 432 kts | 283° |
| 2026-04-22 06:05 | 42.48327 | 30.96714 | 36027 ft | 432 kts | 282° |
| 2026-04-22 06:05 | 42.49783 | 30.88814 | 36027 ft | 432 kts | 282° |
| 2026-04-22 06:06 | 42.51233 | 30.80911 | 36027 ft | 432 kts | 283° |
| 2026-04-22 06:06 | 42.52668 | 30.73055 | 36027 ft | 432 kts | 282° |
| 2026-04-22 06:07 | 42.54107 | 30.65149 | 36026 ft | 432 kts | 282° |
| 2026-04-22 06:07 | 42.55540 | 30.57240 | 36027 ft | 432 kts | 282° |
| 2026-04-22 06:08 | 42.56968 | 30.49331 | 36027 ft | 432 kts | 282° |
| 2026-04-22 06:08 | 42.58390 | 30.41404 | 36026 ft | 432 kts | 282° |
| 2026-04-22 06:09 | 42.59819 | 30.33485 | 36025 ft | 432 kts | 284° |
| 2026-04-22 06:09 | 42.62056 | 30.25960 | 36027 ft | 435 kts | 297° |
| 2026-04-22 06:10 | 42.65686 | 30.19318 | 36027 ft | 440 kts | 306° |
| 2026-04-22 06:10 | 42.69779 | 30.13022 | 36027 ft | 442 kts | 308° |
| 2026-04-22 06:11 | 42.73877 | 30.06847 | 36027 ft | 442 kts | 308° |
| 2026-04-22 06:11 | 42.77973 | 30.00619 | 36033 ft | 442 kts | 307° |
| 2026-04-22 06:12 | 42.82061 | 29.94352 | 36034 ft | 442 kts | 307° |
| 2026-04-22 06:12 | 42.86138 | 29.88073 | 36035 ft | 442 kts | 307° |
| 2026-04-22 06:13 | 42.90214 | 29.81781 | 36037 ft | 443 kts | 307° |
| 2026-04-22 06:13 | 42.94288 | 29.75485 | 36035 ft | 442 kts | 307° |
| 2026-04-22 06:14 | 42.98331 | 29.69215 | 36036 ft | 443 kts | 307° |
| 2026-04-22 06:14 | 43.02410 | 29.62884 | 36036 ft | 446 kts | 306° |
| 2026-04-22 06:15 | 43.06550 | 29.56435 | 36034 ft | 452 kts | 307° |
| 2026-04-22 06:15 | 43.10698 | 29.49969 | 36037 ft | 452 kts | 307° |
| 2026-04-22 06:16 | 43.14845 | 29.43491 | 36036 ft | 451 kts | 306° |
| 2026-04-22 06:16 | 43.18977 | 29.37019 | 36037 ft | 452 kts | 306° |
| 2026-04-22 06:17 | 43.23087 | 29.30566 | 36038 ft | 452 kts | 307° |
| 2026-04-22 06:17 | 43.27215 | 29.24071 | 36050 ft | 452 kts | 306° |
| 2026-04-22 06:18 | 43.31347 | 29.17556 | 36044 ft | 451 kts | 306° |
| 2026-04-22 06:18 | 43.35461 | 29.11053 | 36052 ft | 451 kts | 306° |
| 2026-04-22 06:19 | 43.39583 | 29.04523 | 36037 ft | 451 kts | 306° |
| 2026-04-22 06:19 | 43.43696 | 28.97992 | 36038 ft | 451 kts | 306° |
| 2026-04-22 06:20 | 43.47805 | 28.91452 | 36052 ft | 451 kts | 306° |
| 2026-04-22 06:20 | 43.51902 | 28.84915 | 36050 ft | 451 kts | 306° |
| 2026-04-22 06:21 | 43.56002 | 28.78362 | 36035 ft | 451 kts | 306° |
| 2026-04-22 06:21 | 43.60068 | 28.71848 | 36041 ft | 451 kts | 306° |
| 2026-04-22 06:22 | 43.64157 | 28.65280 | 36050 ft | 451 kts | 306° |
| 2026-04-22 06:22 | 43.68246 | 28.58698 | 36049 ft | 451 kts | 306° |
| 2026-04-22 06:23 | 43.72342 | 28.52107 | 36038 ft | 451 kts | 307° |
| 2026-04-22 06:23 | 43.76849 | 28.46063 | 36042 ft | 455 kts | 313° |
| 2026-04-22 06:24 | 43.83934 | 28.37268 | 36050 ft | 456 kts | 313° |
| 2026-04-22 06:25 | 43.88675 | 28.31423 | 36037 ft | 456 kts | 313° |
| 2026-04-22 06:25 | 43.93407 | 28.25556 | 36050 ft | 456 kts | 313° |
| 2026-04-22 06:26 | 43.98130 | 28.19678 | 36049 ft | 456 kts | 313° |
| 2026-04-22 06:26 | 44.02850 | 28.13790 | 36035 ft | 456 kts | 313° |
| 2026-04-22 06:27 | 44.07533 | 28.07931 | 36035 ft | 456 kts | 313° |
| 2026-04-22 06:27 | 44.12244 | 28.02027 | 36054 ft | 456 kts | 313° |
| 2026-04-22 06:28 | 44.16968 | 27.96099 | 36053 ft | 456 kts | 313° |
| 2026-04-22 06:28 | 44.21672 | 27.90176 | 36047 ft | 456 kts | 313° |
| 2026-04-22 06:29 | 44.26373 | 27.84241 | 36054 ft | 456 kts | 313° |
| 2026-04-22 06:29 | 44.31077 | 27.78290 | 36048 ft | 456 kts | 313° |
| 2026-04-22 06:30 | 44.35778 | 27.72327 | 36047 ft | 457 kts | 313° |
| 2026-04-22 06:30 | 44.40485 | 27.66350 | 36060 ft | 457 kts | 313° |
| 2026-04-22 06:31 | 44.45165 | 27.60395 | 36046 ft | 458 kts | 313° |
| 2026-04-22 06:31 | 44.49876 | 27.54386 | 36053 ft | 458 kts | 313° |
| 2026-04-22 06:32 | 44.54583 | 27.48367 | 36059 ft | 458 kts | 313° |
| 2026-04-22 06:32 | 44.59297 | 27.42320 | 36052 ft | 459 kts | 313° |
| 2026-04-22 06:33 | 44.64012 | 27.36262 | 36053 ft | 460 kts | 313° |
| 2026-04-22 06:33 | 44.68730 | 27.30187 | 36064 ft | 460 kts | 313° |
| 2026-04-22 06:34 | 44.73456 | 27.24088 | 36063 ft | 461 kts | 313° |
| 2026-04-22 06:34 | 44.78144 | 27.18018 | 36065 ft | 461 kts | 313° |
| 2026-04-22 06:35 | 44.82871 | 27.11891 | 36065 ft | 462 kts | 313° |
| 2026-04-22 06:35 | 44.87601 | 27.05743 | 36062 ft | 462 kts | 313° |
| 2026-04-22 06:36 | 44.92323 | 26.99590 | 36059 ft | 462 kts | 313° |
| 2026-04-22 06:36 | 44.97053 | 26.93413 | 36066 ft | 463 kts | 313° |
| 2026-04-22 06:37 | 45.01780 | 26.87225 | 36059 ft | 463 kts | 314° |
| 2026-04-22 06:37 | 45.06479 | 26.81060 | 36059 ft | 463 kts | 314° |
| 2026-04-22 06:38 | 45.11209 | 26.74839 | 36065 ft | 464 kts | 314° |
| 2026-04-22 06:38 | 45.15934 | 26.68609 | 36069 ft | 464 kts | 314° |
| 2026-04-22 06:39 | 45.20670 | 26.62352 | 36067 ft | 465 kts | 314° |
| 2026-04-22 06:39 | 45.25403 | 26.56078 | 36065 ft | 465 kts | 314° |
| 2026-04-22 06:40 | 45.30105 | 26.49829 | 36066 ft | 466 kts | 314° |
| 2026-04-22 06:40 | 45.34787 | 26.43457 | 36066 ft | 466 kts | 313° |
| 2026-04-22 06:41 | 45.39437 | 26.37013 | 36067 ft | 467 kts | 313° |
| 2026-04-22 06:41 | 45.44091 | 26.30563 | 36061 ft | 467 kts | 313° |
| 2026-04-22 06:42 | 45.48747 | 26.24112 | 36047 ft | 467 kts | 313° |
| 2026-04-22 06:42 | 45.53406 | 26.17646 | 36050 ft | 467 kts | 313° |
| 2026-04-22 06:43 | 45.58075 | 26.11164 | 36059 ft | 468 kts | 313° |
| 2026-04-22 06:43 | 45.62757 | 26.04645 | 36055 ft | 470 kts | 313° |
| 2026-04-22 06:44 | 45.67431 | 25.98121 | 36057 ft | 470 kts | 313° |
| 2026-04-22 06:44 | 45.72071 | 25.91625 | 36056 ft | 470 kts | 313° |
| 2026-04-22 06:45 | 45.76744 | 25.85066 | 36053 ft | 470 kts | 313° |
| 2026-04-22 06:45 | 45.81417 | 25.78494 | 36057 ft | 470 kts | 313° |
| 2026-04-22 06:46 | 45.86081 | 25.71913 | 36057 ft | 471 kts | 313° |
| 2026-04-22 06:46 | 45.90750 | 25.65312 | 36058 ft | 470 kts | 313° |
| 2026-04-22 06:47 | 45.95412 | 25.58704 | 36048 ft | 470 kts | 313° |
| 2026-04-22 06:47 | 46.00063 | 25.52093 | 36054 ft | 469 kts | 313° |
| 2026-04-22 06:48 | 46.03926 | 25.46591 | 36055 ft | 470 kts | 313° |
| 2026-04-22 06:48 | 46.08586 | 25.39937 | 36054 ft | 472 kts | 313° |
| 2026-04-22 06:49 | 46.13221 | 25.33307 | 36052 ft | 472 kts | 313° |
| 2026-04-22 06:49 | 46.17878 | 25.26624 | 36060 ft | 472 kts | 313° |
| 2026-04-22 06:50 | 46.22539 | 25.19923 | 36055 ft | 472 kts | 313° |
| 2026-04-22 06:50 | 46.27190 | 25.13217 | 36060 ft | 473 kts | 313° |
| 2026-04-22 06:51 | 46.31842 | 25.06492 | 36065 ft | 473 kts | 313° |
| 2026-04-22 06:51 | 46.36496 | 24.99746 | 36059 ft | 473 kts | 313° |
| 2026-04-22 06:52 | 46.41143 | 24.92998 | 36060 ft | 473 kts | 313° |
| 2026-04-22 06:52 | 46.45787 | 24.86231 | 36069 ft | 473 kts | 313° |
| 2026-04-22 06:53 | 46.50433 | 24.79440 | 36077 ft | 474 kts | 313° |
| 2026-04-22 06:53 | 46.55075 | 24.72640 | 36070 ft | 474 kts | 313° |
| 2026-04-22 06:54 | 46.59720 | 24.65822 | 36075 ft | 474 kts | 313° |
| 2026-04-22 06:54 | 46.64324 | 24.59048 | 36070 ft | 474 kts | 313° |
| 2026-04-22 06:55 | 46.68964 | 24.52200 | 36069 ft | 474 kts | 313° |
| 2026-04-22 06:55 | 46.73592 | 24.45351 | 36082 ft | 474 kts | 313° |
| 2026-04-22 06:56 | 46.78223 | 24.38483 | 36081 ft | 475 kts | 313° |
| 2026-04-22 06:56 | 46.82853 | 24.31596 | 36088 ft | 475 kts | 313° |
| 2026-04-22 06:57 | 46.87483 | 24.24690 | 36091 ft | 475 kts | 313° |
| 2026-04-22 06:57 | 46.92078 | 24.17819 | 36092 ft | 475 kts | 313° |
| 2026-04-22 06:58 | 46.96696 | 24.10898 | 36097 ft | 476 kts | 313° |
| 2026-04-22 06:58 | 47.01336 | 24.03923 | 36100 ft | 476 kts | 314° |
| 2026-04-22 06:59 | 47.05958 | 23.96965 | 36101 ft | 477 kts | 314° |
| 2026-04-22 06:59 | 47.10553 | 23.90022 | 36099 ft | 477 kts | 314° |
| 2026-04-22 07:00 | 47.15165 | 23.83028 | 36105 ft | 477 kts | 314° |
| 2026-04-22 07:00 | 47.19781 | 23.76018 | 36112 ft | 477 kts | 314° |
| 2026-04-22 07:01 | 47.24397 | 23.68981 | 36108 ft | 477 kts | 314° |
| 2026-04-22 07:01 | 47.29012 | 23.61935 | 36115 ft | 478 kts | 314° |
| 2026-04-22 07:02 | 47.33622 | 23.54876 | 36118 ft | 478 kts | 314° |
| 2026-04-22 07:02 | 47.38205 | 23.47846 | 36117 ft | 478 kts | 314° |
| 2026-04-22 07:03 | 47.42811 | 23.40753 | 36128 ft | 478 kts | 314° |
| 2026-04-22 07:03 | 47.47410 | 23.33653 | 36127 ft | 478 kts | 314° |
| 2026-04-22 07:04 | 47.52005 | 23.26543 | 36129 ft | 478 kts | 314° |
| 2026-04-22 07:04 | 47.56596 | 23.19415 | 36127 ft | 478 kts | 314° |
| 2026-04-22 07:05 | 47.61185 | 23.12272 | 36127 ft | 478 kts | 314° |
| 2026-04-22 07:05 | 47.65776 | 23.05121 | 36125 ft | 478 kts | 314° |
| 2026-04-22 07:06 | 47.70358 | 22.97951 | 36129 ft | 478 kts | 313° |
| 2026-04-22 07:06 | 47.74899 | 22.90825 | 36129 ft | 478 kts | 314° |
| 2026-04-22 07:07 | 47.79471 | 22.83628 | 36123 ft | 479 kts | 313° |
| 2026-04-22 07:07 | 47.84042 | 22.76412 | 36133 ft | 479 kts | 314° |
| 2026-04-22 07:08 | 47.88608 | 22.69190 | 36126 ft | 479 kts | 314° |
| 2026-04-22 07:08 | 47.93184 | 22.61930 | 36127 ft | 479 kts | 314° |
| 2026-04-22 07:09 | 47.97743 | 22.54679 | 36131 ft | 479 kts | 314° |
| 2026-04-22 07:09 | 48.02298 | 22.47412 | 36125 ft | 479 kts | 314° |
| 2026-04-22 07:10 | 48.06860 | 22.40116 | 36126 ft | 481 kts | 314° |
| 2026-04-22 07:10 | 48.11396 | 22.32842 | 36126 ft | 480 kts | 314° |
| 2026-04-22 07:11 | 48.15949 | 22.25517 | 36126 ft | 480 kts | 314° |
| 2026-04-22 07:11 | 48.20497 | 22.18182 | 36129 ft | 480 kts | 314° |
| 2026-04-22 07:12 | 48.25043 | 22.10830 | 36126 ft | 480 kts | 313° |
| 2026-04-22 07:12 | 48.29572 | 22.03554 | 36127 ft | 480 kts | 316° |
| 2026-04-22 07:13 | 48.34899 | 21.97576 | 36126 ft | 478 kts | 332° |
| 2026-04-22 07:13 | 48.41167 | 21.94353 | 36129 ft | 478 kts | 351° |
| 2026-04-22 07:14 | 48.47815 | 21.94162 | 36129 ft | 479 kts | 3° |
| 2026-04-22 07:14 | 48.54468 | 21.95004 | 36131 ft | 480 kts | 5° |
| 2026-04-22 07:15 | 48.61120 | 21.95972 | 36133 ft | 480 kts | 5° |
| 2026-04-22 07:15 | 48.67727 | 21.96896 | 36124 ft | 479 kts | 5° |
| 2026-04-22 07:16 | 48.74376 | 21.97797 | 36129 ft | 479 kts | 5° |
| 2026-04-22 07:16 | 48.81017 | 21.98682 | 36129 ft | 480 kts | 5° |
| 2026-04-22 07:17 | 48.87670 | 21.99567 | 36134 ft | 479 kts | 5° |
| 2026-04-22 07:17 | 48.94313 | 22.00460 | 36132 ft | 478 kts | 5° |
| 2026-04-22 07:18 | 49.00943 | 22.01351 | 36129 ft | 478 kts | 5° |
| 2026-04-22 07:18 | 49.07539 | 22.02240 | 36128 ft | 478 kts | 5° |
| 2026-04-22 07:19 | 49.14167 | 22.03139 | 36129 ft | 478 kts | 5° |
| 2026-04-22 07:19 | 49.20807 | 22.04042 | 36131 ft | 478 kts | 5° |
| 2026-04-22 07:20 | 49.27433 | 22.04946 | 36125 ft | 478 kts | 5° |
| 2026-04-22 07:20 | 49.34051 | 22.05849 | 36128 ft | 477 kts | 5° |
| 2026-04-22 07:21 | 49.40666 | 22.06757 | 36131 ft | 477 kts | 5° |
| 2026-04-22 07:21 | 49.47240 | 22.07661 | 36131 ft | 477 kts | 5° |
| 2026-04-22 07:22 | 49.53855 | 22.08571 | 36130 ft | 477 kts | 6° |
| 2026-04-22 07:22 | 49.60456 | 22.09482 | 36126 ft | 476 kts | 6° |
| 2026-04-22 07:23 | 49.67053 | 22.10389 | 36126 ft | 476 kts | 6° |
| 2026-04-22 07:23 | 49.73641 | 22.11308 | 36133 ft | 476 kts | 6° |
| 2026-04-22 07:24 | 49.80237 | 22.12232 | 36128 ft | 476 kts | 6° |
| 2026-04-22 07:24 | 49.86846 | 22.13154 | 36130 ft | 476 kts | 6° |
| 2026-04-22 07:25 | 49.93404 | 22.14069 | 36126 ft | 476 kts | 6° |
| 2026-04-22 07:25 | 50.00001 | 22.14993 | 36125 ft | 476 kts | 6° |
| 2026-04-22 07:26 | 50.06590 | 22.15921 | 36130 ft | 476 kts | 6° |
| 2026-04-22 07:26 | 50.13190 | 22.16858 | 36124 ft | 476 kts | 6° |
| 2026-04-22 07:27 | 50.19788 | 22.17792 | 36135 ft | 476 kts | 6° |
| 2026-04-22 07:27 | 50.26389 | 22.18727 | 36128 ft | 476 kts | 6° |
| 2026-04-22 07:28 | 50.36279 | 22.20134 | 36130 ft | 475 kts | 6° |
| 2026-04-22 07:28 | 50.42868 | 22.21074 | 36132 ft | 475 kts | 6° |
| 2026-04-22 07:29 | 50.49411 | 22.22016 | 36125 ft | 475 kts | 6° |
| 2026-04-22 07:29 | 50.56004 | 22.22965 | 36124 ft | 475 kts | 6° |
| 2026-04-22 07:30 | 50.62579 | 22.23912 | 36137 ft | 474 kts | 6° |
| 2026-04-22 07:30 | 50.69161 | 22.24863 | 36134 ft | 474 kts | 6° |
| 2026-04-22 07:31 | 50.75736 | 22.25816 | 36127 ft | 474 kts | 6° |
| 2026-04-22 07:31 | 50.82304 | 22.26773 | 36136 ft | 474 kts | 6° |
| 2026-04-22 07:32 | 50.88833 | 22.27723 | 36144 ft | 474 kts | 6° |
| 2026-04-22 07:32 | 50.95392 | 22.28681 | 36144 ft | 473 kts | 6° |
| 2026-04-22 07:33 | 51.01950 | 22.29644 | 36145 ft | 473 kts | 6° |
| 2026-04-22 07:33 | 51.08504 | 22.30605 | 36128 ft | 472 kts | 7° |
| 2026-04-22 07:34 | 51.15054 | 22.31569 | 36127 ft | 472 kts | 7° |
| 2026-04-22 07:34 | 51.21598 | 22.32537 | 36124 ft | 472 kts | 7° |
| 2026-04-22 07:35 | 51.28139 | 22.33508 | 36126 ft | 472 kts | 7° |
| 2026-04-22 07:35 | 51.34634 | 22.34475 | 36130 ft | 471 kts | 7° |
| 2026-04-22 07:36 | 51.41171 | 22.35450 | 36131 ft | 471 kts | 7° |
| 2026-04-22 07:36 | 51.47699 | 22.36427 | 36132 ft | 471 kts | 7° |
| 2026-04-22 07:37 | 51.53136 | 22.37242 | 36135 ft | 471 kts | 7° |
| 2026-04-22 07:37 | 51.59660 | 22.38224 | 36143 ft | 471 kts | 7° |
| 2026-04-22 07:38 | 51.66186 | 22.39210 | 36144 ft | 471 kts | 7° |
| 2026-04-22 07:38 | 51.72711 | 22.40194 | 36129 ft | 470 kts | 7° |
| 2026-04-22 07:39 | 51.79220 | 22.41184 | 36133 ft | 470 kts | 7° |
| 2026-04-22 07:39 | 51.85737 | 22.42174 | 36143 ft | 470 kts | 7° |
| 2026-04-22 07:40 | 51.92210 | 22.43160 | 36144 ft | 470 kts | 7° |
| 2026-04-22 07:40 | 51.98727 | 22.44155 | 36129 ft | 470 kts | 7° |
| 2026-04-22 07:41 | 52.05249 | 22.45154 | 36134 ft | 469 kts | 7° |
| 2026-04-22 07:41 | 52.11747 | 22.46153 | 36144 ft | 468 kts | 7° |
| 2026-04-22 07:42 | 52.18236 | 22.47155 | 36155 ft | 469 kts | 7° |
| 2026-04-22 07:42 | 52.24691 | 22.48157 | 36152 ft | 469 kts | 7° |
| 2026-04-22 07:43 | 52.31185 | 22.49166 | 36157 ft | 469 kts | 7° |
| 2026-04-22 07:43 | 52.37678 | 22.50176 | 36155 ft | 468 kts | 7° |
| 2026-04-22 07:44 | 52.44159 | 22.51188 | 36157 ft | 468 kts | 7° |
| 2026-04-22 07:44 | 52.50634 | 22.52204 | 36149 ft | 468 kts | 7° |
| 2026-04-22 07:45 | 52.57119 | 22.53224 | 36148 ft | 468 kts | 8° |
| 2026-04-22 07:45 | 52.63607 | 22.54294 | 36147 ft | 467 kts | 9° |
| 2026-04-22 07:46 | 52.70000 | 22.56126 | 36145 ft | 465 kts | 13° |
| 2026-04-22 07:46 | 52.76313 | 22.58207 | 36123 ft | 465 kts | 13° |
| 2026-04-22 07:47 | 52.82678 | 22.60207 | 36126 ft | 465 kts | 13° |
| 2026-04-22 07:47 | 52.89034 | 22.62123 | 36132 ft | 464 kts | 12° |
| 2026-04-22 07:48 | 52.95404 | 22.64021 | 36133 ft | 465 kts | 12° |
| 2026-04-22 07:48 | 53.01769 | 22.65922 | 36123 ft | 465 kts | 12° |
| 2026-04-22 07:49 | 53.08090 | 22.67822 | 36130 ft | 464 kts | 12° |
| 2026-04-22 07:49 | 53.14480 | 22.69753 | 36123 ft | 463 kts | 13° |
| 2026-04-22 07:50 | 53.20776 | 22.71659 | 36133 ft | 463 kts | 13° |
| 2026-04-22 07:50 | 53.27122 | 22.73587 | 36114 ft | 463 kts | 13° |
| 2026-04-22 07:51 | 53.33465 | 22.75520 | 36124 ft | 463 kts | 13° |
| 2026-04-22 07:51 | 53.39808 | 22.77458 | 36123 ft | 463 kts | 13° |
| 2026-04-22 07:52 | 53.46138 | 22.79400 | 36113 ft | 462 kts | 13° |
| 2026-04-22 07:52 | 53.52471 | 22.81348 | 36117 ft | 462 kts | 13° |
| 2026-04-22 07:53 | 53.58798 | 22.83298 | 36121 ft | 462 kts | 13° |
| 2026-04-22 07:53 | 53.65116 | 22.85237 | 36115 ft | 460 kts | 13° |
| 2026-04-22 07:54 | 53.71391 | 22.87184 | 36121 ft | 461 kts | 13° |
| 2026-04-22 07:54 | 53.77707 | 22.89162 | 36110 ft | 461 kts | 13° |
| 2026-04-22 07:55 | 53.84021 | 22.91138 | 36108 ft | 461 kts | 13° |
| 2026-04-22 07:55 | 53.90331 | 22.93111 | 36108 ft | 461 kts | 13° |
| 2026-04-22 07:56 | 53.96635 | 22.95091 | 36107 ft | 460 kts | 13° |
| 2026-04-22 07:56 | 54.02941 | 22.97077 | 36107 ft | 460 kts | 13° |
| 2026-04-22 07:57 | 54.09232 | 22.99066 | 36114 ft | 459 kts | 13° |
| 2026-04-22 07:57 | 54.15507 | 23.01054 | 36111 ft | 458 kts | 13° |
| 2026-04-22 07:58 | 54.21780 | 23.03048 | 36112 ft | 458 kts | 13° |
| 2026-04-22 07:58 | 54.28054 | 23.05049 | 36104 ft | 459 kts | 13° |
| 2026-04-22 07:59 | 54.34296 | 23.07033 | 36100 ft | 459 kts | 13° |
| 2026-04-22 07:59 | 54.40603 | 23.08933 | 36100 ft | 459 kts | 13° |
| 2026-04-22 08:00 | 54.46910 | 23.10817 | 36092 ft | 460 kts | 13° |
| 2026-04-22 08:00 | 54.53213 | 23.12725 | 36091 ft | 460 kts | 13° |
| 2026-04-22 08:01 | 54.59507 | 23.14642 | 36091 ft | 459 kts | 13° |
| 2026-04-22 08:01 | 54.65769 | 23.16560 | 36091 ft | 459 kts | 13° |
| 2026-04-22 08:02 | 54.72069 | 23.18499 | 36081 ft | 459 kts | 13° |
| 2026-04-22 08:02 | 54.78346 | 23.20435 | 36083 ft | 458 kts | 13° |
| 2026-04-22 08:03 | 54.84638 | 23.22381 | 36081 ft | 459 kts | 13° |
| 2026-04-22 08:03 | 54.90931 | 23.24334 | 36083 ft | 459 kts | 13° |
| 2026-04-22 08:04 | 54.97183 | 23.26278 | 36080 ft | 459 kts | 13° |
| 2026-04-22 08:04 | 55.03462 | 23.28236 | 36083 ft | 458 kts | 13° |
| 2026-04-22 08:05 | 55.09735 | 23.30202 | 36083 ft | 458 kts | 13° |
| 2026-04-22 08:05 | 55.16018 | 23.32177 | 36081 ft | 458 kts | 13° |
| 2026-04-22 08:06 | 55.22303 | 23.34155 | 36081 ft | 459 kts | 13° |
| 2026-04-22 08:06 | 55.28549 | 23.36131 | 36082 ft | 458 kts | 13° |
| 2026-04-22 08:07 | 55.34822 | 23.38121 | 36082 ft | 458 kts | 13° |
| 2026-04-22 08:07 | 55.41086 | 23.40123 | 36084 ft | 457 kts | 13° |
| 2026-04-22 08:08 | 55.47340 | 23.42167 | 36074 ft | 457 kts | 14° |
| 2026-04-22 08:08 | 55.53578 | 23.44445 | 36072 ft | 458 kts | 14° |
| 2026-04-22 08:09 | 55.59820 | 23.46770 | 36070 ft | 458 kts | 14° |
| 2026-04-22 08:09 | 55.66058 | 23.49074 | 36070 ft | 458 kts | 14° |
| 2026-04-22 08:10 | 55.72254 | 23.51351 | 36069 ft | 458 kts | 14° |
| 2026-04-22 08:10 | 55.78491 | 23.53636 | 36077 ft | 458 kts | 14° |
| 2026-04-22 08:11 | 55.84736 | 23.55933 | 36070 ft | 458 kts | 14° |
| 2026-04-22 08:11 | 55.90968 | 23.58237 | 36072 ft | 457 kts | 14° |
| 2026-04-22 08:12 | 55.97200 | 23.60551 | 36073 ft | 457 kts | 14° |
| 2026-04-22 08:12 | 56.03432 | 23.62869 | 36075 ft | 457 kts | 14° |
| 2026-04-22 08:13 | 56.09670 | 23.65198 | 36071 ft | 457 kts | 14° |
| 2026-04-22 08:13 | 56.15899 | 23.67530 | 36075 ft | 457 kts | 14° |
| 2026-04-22 08:14 | 56.22085 | 23.69855 | 36077 ft | 457 kts | 14° |
| 2026-04-22 08:14 | 56.28301 | 23.72200 | 36066 ft | 456 kts | 15° |
| 2026-04-22 08:15 | 56.34516 | 23.74553 | 36062 ft | 456 kts | 15° |
| 2026-04-22 08:15 | 56.40733 | 23.76872 | 36067 ft | 456 kts | 14° |
| 2026-04-22 08:16 | 56.46976 | 23.78988 | 36060 ft | 456 kts | 13° |
| 2026-04-22 08:16 | 56.53219 | 23.81075 | 36059 ft | 456 kts | 13° |
| 2026-04-22 08:17 | 56.59452 | 23.83193 | 36050 ft | 455 kts | 13° |
| 2026-04-22 08:17 | 56.65684 | 23.85354 | 36059 ft | 455 kts | 13° |
| 2026-04-22 08:18 | 56.71862 | 23.87508 | 36051 ft | 455 kts | 13° |
| 2026-04-22 08:18 | 56.78082 | 23.89672 | 36039 ft | 455 kts | 13° |
| 2026-04-22 08:19 | 56.84298 | 23.91843 | 36050 ft | 454 kts | 13° |
| 2026-04-22 08:19 | 56.90501 | 23.94021 | 36035 ft | 453 kts | 13° |
| 2026-04-22 08:20 | 56.96702 | 23.96187 | 36052 ft | 454 kts | 13° |
| 2026-04-22 08:20 | 57.02891 | 23.98359 | 36036 ft | 451 kts | 13° |
| 2026-04-22 08:21 | 57.09074 | 24.00555 | 36050 ft | 453 kts | 13° |
| 2026-04-22 08:21 | 57.15242 | 24.02766 | 36051 ft | 452 kts | 13° |
| 2026-04-22 08:22 | 57.21432 | 24.04965 | 36035 ft | 452 kts | 13° |
| 2026-04-22 08:22 | 57.27558 | 24.07163 | 36037 ft | 450 kts | 13° |
| 2026-04-22 08:23 | 57.33699 | 24.09374 | 36036 ft | 450 kts | 13° |
| 2026-04-22 08:23 | 57.39859 | 24.11590 | 36035 ft | 450 kts | 13° |
| 2026-04-22 08:24 | 57.45994 | 24.13807 | 36026 ft | 449 kts | 13° |
| 2026-04-22 08:24 | 57.52137 | 24.16034 | 36025 ft | 449 kts | 13° |
| 2026-04-22 08:25 | 57.57230 | 24.17886 | 36025 ft | 448 kts | 13° |
| 2026-04-22 08:25 | 57.64346 | 24.20483 | 36018 ft | 448 kts | 13° |
| 2026-04-22 08:26 | 57.70461 | 24.22723 | 36009 ft | 447 kts | 13° |
| 2026-04-22 08:26 | 57.75582 | 24.24607 | 35998 ft | 447 kts | 13° |
| 2026-04-22 08:27 | 57.81650 | 24.26841 | 35999 ft | 447 kts | 13° |
| 2026-04-22 08:27 | 57.87771 | 24.29113 | 35985 ft | 448 kts | 13° |
| 2026-04-22 08:28 | 57.93889 | 24.31336 | 35984 ft | 447 kts | 12° |
| 2026-04-22 08:28 | 58.00018 | 24.33414 | 35980 ft | 448 kts | 12° |
| 2026-04-22 08:29 | 58.06146 | 24.35486 | 35980 ft | 446 kts | 12° |
| 2026-04-22 08:29 | 58.12216 | 24.37567 | 35971 ft | 446 kts | 12° |
| 2026-04-22 08:30 | 58.18314 | 24.39677 | 35971 ft | 446 kts | 12° |
| 2026-04-22 08:30 | 58.24418 | 24.41799 | 35971 ft | 445 kts | 12° |
| 2026-04-22 08:31 | 58.30507 | 24.43923 | 35971 ft | 445 kts | 12° |
| 2026-04-22 08:32 | 58.39646 | 24.47122 | 35960 ft | 444 kts | 12° |
| 2026-04-22 08:32 | 58.45720 | 24.49252 | 35962 ft | 443 kts | 12° |
| 2026-04-22 08:33 | 58.51733 | 24.51381 | 35962 ft | 442 kts | 12° |
| 2026-04-22 08:33 | 58.57781 | 24.53544 | 35961 ft | 443 kts | 12° |
| 2026-04-22 08:34 | 58.63827 | 24.55694 | 35962 ft | 440 kts | 12° |
| 2026-04-22 08:34 | 58.69831 | 24.57798 | 35964 ft | 436 kts | 12° |
| 2026-04-22 08:35 | 58.75808 | 24.59937 | 35961 ft | 437 kts | 12° |
| 2026-04-22 08:35 | 58.81792 | 24.62096 | 35880 ft | 435 kts | 12° |
| 2026-04-22 08:35 | 58.84770 | 24.63171 | 35663 ft | 436 kts | 12° |
| 2026-04-22 08:36 | 58.87757 | 24.64252 | 35445 ft | 437 kts | 12° |
| 2026-04-22 08:36 | 58.90725 | 24.65324 | 35187 ft | 432 kts | 12° |
| 2026-04-22 08:36 | 58.93681 | 24.66393 | 34941 ft | 431 kts | 12° |
| 2026-04-22 08:36 | 58.96630 | 24.67467 | 34688 ft | 431 kts | 12° |
| 2026-04-22 08:37 | 58.99546 | 24.68525 | 34146 ft | 419 kts | 12° |
| 2026-04-22 08:37 | 59.02369 | 24.69549 | 33363 ft | 406 kts | 12° |
| 2026-04-22 08:37 | 59.05132 | 24.70553 | 32547 ft | 405 kts | 12° |
| 2026-04-22 08:37 | 59.07922 | 24.71572 | 31703 ft | 410 kts | 12° |
| 2026-04-22 08:38 | 59.10711 | 24.72594 | 30841 ft | 416 kts | 11° |
| 2026-04-22 08:38 | 59.13579 | 24.73646 | 29925 ft | 421 kts | 11° |
| 2026-04-22 08:38 | 59.16471 | 24.74708 | 29073 ft | 425 kts | 11° |
| 2026-04-22 08:38 | 59.19380 | 24.75778 | 28345 ft | 423 kts | 11° |
| 2026-04-22 08:39 | 59.22261 | 24.76836 | 27660 ft | 420 kts | 11° |
| 2026-04-22 08:39 | 59.25118 | 24.77887 | 26963 ft | 415 kts | 11° |
| 2026-04-22 08:39 | 59.27939 | 24.78927 | 26294 ft | 411 kts | 11° |
| 2026-04-22 08:39 | 59.30738 | 24.79963 | 25613 ft | 407 kts | 11° |
| 2026-04-22 08:40 | 59.33510 | 24.80988 | 24957 ft | 403 kts | 11° |
| 2026-04-22 08:40 | 59.36251 | 24.82001 | 24302 ft | 400 kts | 11° |
| 2026-04-22 08:40 | 59.38975 | 24.83020 | 23644 ft | 396 kts | 11° |
| 2026-04-22 08:40 | 59.41616 | 24.84473 | 23016 ft | 394 kts | 18° |
| 2026-04-22 08:41 | 59.44171 | 24.86348 | 22377 ft | 391 kts | 20° |
| 2026-04-22 08:41 | 59.46690 | 24.88337 | 21738 ft | 388 kts | 20° |
| 2026-04-22 08:41 | 59.49173 | 24.90377 | 21104 ft | 391 kts | 21° |
| 2026-04-22 08:41 | 59.51667 | 24.92466 | 20454 ft | 387 kts | 21° |
| 2026-04-22 08:42 | 59.54133 | 24.94540 | 19805 ft | 383 kts | 20° |
| 2026-04-22 08:42 | 59.56586 | 24.96601 | 19149 ft | 379 kts | 20° |
| 2026-04-22 08:42 | 59.58993 | 24.98622 | 18496 ft | 375 kts | 20° |
| 2026-04-22 08:42 | 59.61356 | 25.00605 | 17850 ft | 373 kts | 20° |
| 2026-04-22 08:43 | 59.63737 | 25.02604 | 17189 ft | 370 kts | 20° |
| 2026-04-22 08:43 | 59.66102 | 25.04587 | 16514 ft | 367 kts | 20° |
| 2026-04-22 08:43 | 59.68445 | 25.06556 | 15847 ft | 364 kts | 20° |
| 2026-04-22 08:43 | 59.70767 | 25.08511 | 15168 ft | 361 kts | 20° |
| 2026-04-22 08:44 | 59.73078 | 25.10456 | 14488 ft | 358 kts | 20° |
| 2026-04-22 08:44 | 59.75344 | 25.12367 | 14165 ft | 346 kts | 20° |
| 2026-04-22 08:44 | 59.77501 | 25.14196 | 14051 ft | 328 kts | 20° |
| 2026-04-22 08:44 | 59.79552 | 25.15939 | 13948 ft | 312 kts | 19° |
| 2026-04-22 08:45 | 59.81504 | 25.17597 | 13841 ft | 297 kts | 19° |
| 2026-04-22 08:45 | 59.83355 | 25.19169 | 13738 ft | 283 kts | 19° |
| 2026-04-22 08:45 | 59.85101 | 25.20648 | 13622 ft | 270 kts | 19° |
| 2026-04-22 08:45 | 59.86828 | 25.22116 | 13511 ft | 264 kts | 19° |
| 2026-04-22 08:46 | 59.88504 | 25.23499 | 13388 ft | 267 kts | 15° |
| 2026-04-22 08:46 | 59.90433 | 25.23697 | 13321 ft | 298 kts | 345° |
| 2026-04-22 08:46 | 59.92449 | 25.21965 | 13215 ft | 335 kts | 331° |
| 2026-04-22 08:46 | 59.94531 | 25.19472 | 13113 ft | 358 kts | 325° |
| 2026-04-22 08:47 | 59.96611 | 25.16617 | 13086 ft | 364 kts | 330° |
| 2026-04-22 08:47 | 59.98993 | 25.14910 | 13100 ft | 365 kts | 349° |
| 2026-04-22 08:47 | 60.01533 | 25.14944 | 13095 ft | 369 kts | 6° |
| 2026-04-22 08:47 | 60.04031 | 25.16146 | 13084 ft | 371 kts | 14° |
| 2026-04-22 08:48 | 60.06420 | 25.18123 | 13091 ft | 367 kts | 21° |
| 2026-04-22 08:48 | 60.08698 | 25.19960 | 13102 ft | 339 kts | 13° |
| 2026-04-22 08:48 | 60.10918 | 25.20895 | 13074 ft | 315 kts | 4° |
| 2026-04-22 08:48 | 60.13047 | 25.21392 | 12817 ft | 302 kts | 0° |
| 2026-04-22 08:49 | 60.15091 | 25.21551 | 12437 ft | 294 kts | 358° |
| 2026-04-22 08:49 | 60.17110 | 25.21578 | 12039 ft | 287 kts | 355° |
| 2026-04-22 08:49 | 60.19074 | 25.21244 | 11652 ft | 279 kts | 348° |
| 2026-04-22 08:49 | 60.20913 | 25.20216 | 11334 ft | 270 kts | 336° |
| 2026-04-22 08:50 | 60.22571 | 25.18657 | 11196 ft | 256 kts | 331° |
| 2026-04-22 08:50 | 60.24127 | 25.17074 | 11083 ft | 246 kts | 333° |
| 2026-04-22 08:50 | 60.25729 | 25.15926 | 10959 ft | 246 kts | 344° |
| 2026-04-22 08:50 | 60.27476 | 25.15604 | 10867 ft | 263 kts | 359° |
| 2026-04-22 08:51 | 60.29322 | 25.16321 | 10801 ft | 277 kts | 13° |
| 2026-04-22 08:51 | 60.31099 | 25.17900 | 10722 ft | 278 kts | 22° |
| 2026-04-22 08:51 | 60.32810 | 25.19844 | 10670 ft | 285 kts | 24° |
| 2026-04-22 08:51 | 60.34596 | 25.21576 | 10643 ft | 283 kts | 15° |
| 2026-04-22 08:52 | 60.36466 | 25.22495 | 10584 ft | 278 kts | 2° |
| 2026-04-22 08:52 | 60.38359 | 25.23394 | 10410 ft | 285 kts | 18° |
| 2026-04-22 08:52 | 60.39980 | 25.25801 | 10189 ft | 297 kts | 43° |
| 2026-04-22 08:52 | 60.40993 | 25.29507 | 9968 ft | 308 kts | 68° |
| 2026-04-22 08:53 | 60.41442 | 25.33783 | 9745 ft | 311 kts | 77° |
| 2026-04-22 08:53 | 60.41380 | 25.38157 | 9515 ft | 315 kts | 101° |
| 2026-04-22 08:53 | 60.40492 | 25.42116 | 9303 ft | 315 kts | 126° |
| 2026-04-22 08:53 | 60.38899 | 25.45052 | 9058 ft | 306 kts | 152° |
| 2026-04-22 08:54 | 60.36944 | 25.46360 | 8816 ft | 290 kts | 179° |
| 2026-04-22 08:54 | 60.35024 | 25.45888 | 8569 ft | 270 kts | 206° |
| 2026-04-22 08:54 | 60.33536 | 25.43878 | 8333 ft | 249 kts | 234° |
| 2026-04-22 08:54 | 60.32748 | 25.40946 | 8093 ft | 231 kts | 257° |
| 2026-04-22 08:55 | 60.32332 | 25.37862 | 7845 ft | 225 kts | 261° |
| 2026-04-22 08:55 | 60.31844 | 25.34895 | 7587 ft | 225 kts | 244° |
| 2026-04-22 08:55 | 60.30778 | 25.32563 | 7357 ft | 228 kts | 225° |
| 2026-04-22 08:55 | 60.29504 | 25.30587 | 7114 ft | 234 kts | 223° |
| 2026-04-22 08:56 | 60.28175 | 25.28611 | 6870 ft | 240 kts | 222° |
| 2026-04-22 08:56 | 60.26836 | 25.26632 | 6615 ft | 236 kts | 222° |
| 2026-04-22 08:56 | 60.25585 | 25.24559 | 6328 ft | 229 kts | 231° |
| 2026-04-22 08:56 | 60.24818 | 25.21881 | 5924 ft | 219 kts | 262° |
| 2026-04-22 08:57 | 60.24904 | 25.18929 | 5526 ft | 212 kts | 292° |
| 2026-04-22 08:57 | 60.25799 | 25.16618 | 5128 ft | 214 kts | 323° |
| 2026-04-22 08:57 | 60.27164 | 25.15368 | 4726 ft | 218 kts | 338° |
| 2026-04-22 08:57 | 60.28682 | 25.14992 | 4322 ft | 228 kts | 3° |
| 2026-04-22 08:58 | 60.30144 | 25.16281 | 3925 ft | 242 kts | 34° |
| 2026-04-22 08:58 | 60.31214 | 25.18956 | 3526 ft | 241 kts | 54° |
| 2026-04-22 08:58 | 60.31958 | 25.21920 | 3136 ft | 243 kts | 66° |
| 2026-04-22 08:58 | 60.32533 | 25.25097 | 2904 ft | 234 kts | 59° |
| 2026-04-22 08:59 | 60.33520 | 25.27451 | 2882 ft | 208 kts | 25° |
| 2026-04-22 08:59 | 60.34800 | 25.28192 | 2908 ft | 184 kts | 353° |
| 2026-04-22 08:59 | 60.35987 | 25.27486 | 2888 ft | 177 kts | 324° |
| 2026-04-22 08:59 | 60.36930 | 25.25985 | 2889 ft | 165 kts | 315° |
| 2026-04-22 09:00 | 60.37741 | 25.24474 | 2892 ft | 155 kts | 314° |
| 2026-04-22 09:00 | 60.38523 | 25.22976 | 2853 ft | 154 kts | 314° |
| 2026-04-22 09:00 | 60.39298 | 25.21505 | 2833 ft | 155 kts | 314° |
| 2026-04-22 09:00 | 60.40084 | 25.20039 | 2793 ft | 150 kts | 315° |
| 2026-04-22 09:01 | 60.40841 | 25.18652 | 2756 ft | 146 kts | 315° |
| 2026-04-22 09:01 | 60.41506 | 25.17131 | 2703 ft | 145 kts | 302° |
| 2026-04-22 09:01 | 60.41791 | 25.15189 | 2627 ft | 148 kts | 275° |
| 2026-04-22 09:01 | 60.41552 | 25.13137 | 2530 ft | 155 kts | 248° |
| 2026-04-22 09:02 | 60.40897 | 25.11382 | 2392 ft | 157 kts | 235° |
| 2026-04-22 09:02 | 60.40158 | 25.09785 | 2147 ft | 156 kts | 232° |
| 2026-04-22 09:02 | 60.39404 | 25.08195 | 1926 ft | 155 kts | 232° |
| 2026-04-22 09:02 | 60.38661 | 25.06589 | 1846 ft | 159 kts | 233° |
| 2026-04-22 09:03 | 60.37890 | 25.04968 | 1797 ft | 166 kts | 231° |
| 2026-04-22 09:03 | 60.37106 | 25.03293 | 1584 ft | 159 kts | 233° |
| 2026-04-22 09:03 | 60.36387 | 25.01685 | 1288 ft | 153 kts | 234° |
| 2026-04-22 09:03 | 60.35669 | 25.00035 | 1027 ft | 159 kts | 232° |
| 2026-04-22 09:04 | 60.34918 | 24.98384 | 775 ft | 160 kts | 231° |
| 2026-04-22 09:04 | 60.34174 | 24.96739 | 536 ft | 157 kts | 231° |
| 2026-04-22 09:04 | 60.33460 | 24.95164 | 311 ft | 150 kts | 231° |
| 2026-04-22 09:04 | 60.32764 | 24.93615 | 204 ft | 147 kts | 228° |
| 2026-04-22 09:05 | 60.32115 | 24.92190 | 166 ft | 126 kts | 226° |
| 2026-04-22 09:05 | 60.31629 | 24.91107 | 151 ft | 89 kts | 227° |
| 2026-04-22 09:05 | 60.31382 | 24.90584 | 150 ft | 21 kts | 218° |
| 2026-04-22 09:05 | 60.31237 | 24.90544 | 148 ft | 24 kts | 153° |
| 2026-04-22 09:06 | 60.31165 | 24.90838 | 146 ft | 26 kts | 81° |
| 2026-04-22 09:06 | 60.31263 | 24.91121 | 148 ft | 25 kts | 49° |
| 2026-04-22 09:06 | 60.31362 | 24.91337 | 152 ft | 24 kts | 46° |
| 2026-04-22 09:06 | 60.31475 | 24.91576 | 160 ft | 22 kts | 47° |
| 2026-04-22 09:07 | 60.31563 | 24.91771 | 166 ft | 21 kts | 48° |
| 2026-04-22 09:07 | 60.31664 | 24.92004 | 168 ft | 23 kts | 49° |
| 2026-04-22 09:07 | 60.31736 | 24.92161 | 168 ft | 0 kts | 47° |
| 2026-04-22 09:08 | 60.31739 | 24.92169 | 168 ft | 5 kts | 47° |
| 2026-04-22 09:08 | 60.31753 | 24.92296 | 168 ft | 13 kts | 115° |
| 2026-04-22 09:08 | 60.31653 | 24.92497 | 170 ft | 28 kts | 137° |
| 2026-04-22 09:09 | 60.31504 | 24.92774 | 172 ft | 30 kts | 137° |
| 2026-04-22 09:09 | 60.31339 | 24.93079 | 169 ft | 32 kts | 137° |
| 2026-04-22 09:09 | 60.31183 | 24.93369 | 166 ft | 26 kts | 137° |
| 2026-04-22 09:09 | 60.31131 | 24.93655 | 164 ft | 17 kts | 99° |
| 2026-04-22 09:10 | 60.31070 | 24.93779 | 165 ft | 22 kts | 135° |
| 2026-04-22 09:10 | 60.31068 | 24.94061 | 164 ft | 23 kts | 50° |
| 2026-04-22 09:10 | 60.31181 | 24.94323 | 165 ft | 26 kts | 47° |
| 2026-04-22 09:10 | 60.31202 | 24.94369 | 165 ft | 0 kts | 46° |
| 2026-04-22 09:13 | 60.31204 | 24.94372 | 165 ft | 4 kts | 46° |
| 2026-04-22 09:13 | 60.31275 | 24.94518 | 165 ft | 16 kts | 45° |
| 2026-04-22 09:14 | 60.31280 | 24.94707 | 168 ft | 15 kts | 128° |
| 2026-04-22 09:14 | 60.31260 | 24.94864 | 169 ft | 13 kts | 64° |
| 2026-04-22 09:14 | 60.31322 | 24.95015 | 172 ft | 15 kts | 49° |
| 2026-04-22 09:14 | 60.31374 | 24.95174 | 173 ft | 9 kts | 58° |
| 2026-04-22 09:15 | 60.31406 | 24.95255 | 173 ft | 13 kts | 48° |
| 2026-04-22 09:15 | 60.31445 | 24.95339 | 173 ft | 0 kts | 47° |
| 2026-04-22 09:15 | 60.31452 | 24.95356 | 173 ft | 4 kts | 50° |
| 2026-04-22 09:15 | 60.31451 | 24.95423 | 173 ft | 7 kts | 114° |
| 2026-04-22 09:16 | 60.31430 | 24.95477 | 173 ft | 1 kts | 134° |
| 2026-04-22 09:16 | 60.31419 | 24.95500 | 173 ft | 0 kts | 135° |
| 2026-04-22 09:20 | 60.31419 | 24.95499 | 173 ft | 0 kts | 135° |